<?xml version="1.0" encoding="UTF-8" standalone="no" ?>
<gpx xmlns="http://www.topografix.com/GPX/1/1" xmlns:xsi="http://www.w3.org/2001/XMLSchema-instance" xsi:schemaLocation="http://www.topografix.com/GPX/1/1 http://www.topografix.com/GPX/1/1/gpx.xsd" version="1.1" creator="VisuGPX - https://www.visugpx.com">
  <metadata>
    <name>Séguret - Prébayon</name>
    <desc><![CDATA[Rando faite en groupe le 12.01.21]]></desc>
  </metadata>
  <trk>
    <name><![CDATA[2021-12-12 15:13:44]]></name>
    <trkseg>
      <trkpt lat="44.2072" lon="5.02302">
        <ele>237.43</ele>
        <time>2021-12-12T08:45:38Z</time>
      </trkpt>
      <trkpt lat="44.2072" lon="5.02302">
        <ele>236.65</ele>
        <time>2021-12-12T08:45:39Z</time>
      </trkpt>
      <trkpt lat="44.20723" lon="5.02299">
        <ele>235.42</ele>
        <time>2021-12-12T08:45:57Z</time>
      </trkpt>
      <trkpt lat="44.20726" lon="5.02308">
        <ele>235.32</ele>
        <time>2021-12-12T08:46:12Z</time>
      </trkpt>
      <trkpt lat="44.20733" lon="5.02323">
        <ele>235.36</ele>
        <time>2021-12-12T08:46:26Z</time>
      </trkpt>
      <trkpt lat="44.20735" lon="5.02334">
        <ele>236.5</ele>
        <time>2021-12-12T08:46:37Z</time>
      </trkpt>
      <trkpt lat="44.20738" lon="5.0234">
        <ele>237.03</ele>
        <time>2021-12-12T08:46:40Z</time>
      </trkpt>
      <trkpt lat="44.20738" lon="5.02342">
        <ele>237.12</ele>
        <time>2021-12-12T08:46:41Z</time>
      </trkpt>
      <trkpt lat="44.20734" lon="5.02339">
        <ele>237.53</ele>
        <time>2021-12-12T08:46:50Z</time>
      </trkpt>
      <trkpt lat="44.20727" lon="5.02325">
        <ele>238.4</ele>
        <time>2021-12-12T08:47:04Z</time>
      </trkpt>
      <trkpt lat="44.20721" lon="5.02319">
        <ele>239.15</ele>
        <time>2021-12-12T08:47:16Z</time>
      </trkpt>
      <trkpt lat="44.2072" lon="5.02313">
        <ele>240.05</ele>
        <time>2021-12-12T08:47:30Z</time>
      </trkpt>
      <trkpt lat="44.20714" lon="5.02311">
        <ele>240.13</ele>
        <time>2021-12-12T08:47:47Z</time>
      </trkpt>
      <trkpt lat="44.20706" lon="5.02308">
        <ele>241.31</ele>
        <time>2021-12-12T08:47:59Z</time>
      </trkpt>
      <trkpt lat="44.20698" lon="5.02302">
        <ele>242.97</ele>
        <time>2021-12-12T08:48:13Z</time>
      </trkpt>
      <trkpt lat="44.20689" lon="5.02299">
        <ele>244.6</ele>
        <time>2021-12-12T08:48:26Z</time>
      </trkpt>
      <trkpt lat="44.20683" lon="5.02294">
        <ele>247.08</ele>
        <time>2021-12-12T08:48:38Z</time>
      </trkpt>
      <trkpt lat="44.20681" lon="5.02289">
        <ele>247.56</ele>
        <time>2021-12-12T08:48:56Z</time>
      </trkpt>
      <trkpt lat="44.20679" lon="5.02286">
        <ele>247.55</ele>
        <time>2021-12-12T08:49:07Z</time>
      </trkpt>
      <trkpt lat="44.20681" lon="5.02291">
        <ele>247.56</ele>
        <time>2021-12-12T08:49:18Z</time>
      </trkpt>
      <trkpt lat="44.20684" lon="5.0229">
        <ele>246.92</ele>
        <time>2021-12-12T08:49:51Z</time>
      </trkpt>
      <trkpt lat="44.20673" lon="5.02286">
        <ele>247.03</ele>
        <time>2021-12-12T08:50:04Z</time>
      </trkpt>
      <trkpt lat="44.20666" lon="5.02288">
        <ele>247.49</ele>
        <time>2021-12-12T08:50:14Z</time>
      </trkpt>
      <trkpt lat="44.20661" lon="5.02285">
        <ele>247.91</ele>
        <time>2021-12-12T08:50:19Z</time>
      </trkpt>
      <trkpt lat="44.20651" lon="5.02279">
        <ele>248.74</ele>
        <time>2021-12-12T08:50:33Z</time>
      </trkpt>
      <trkpt lat="44.20645" lon="5.0228">
        <ele>249.77</ele>
        <time>2021-12-12T08:50:40Z</time>
      </trkpt>
      <trkpt lat="44.20642" lon="5.0228">
        <ele>250.06</ele>
        <time>2021-12-12T08:50:42Z</time>
      </trkpt>
      <trkpt lat="44.20625" lon="5.02279">
        <ele>251.27</ele>
        <time>2021-12-12T08:50:56Z</time>
      </trkpt>
      <trkpt lat="44.20609" lon="5.0228">
        <ele>252.6</ele>
        <time>2021-12-12T08:51:10Z</time>
      </trkpt>
      <trkpt lat="44.20605" lon="5.02285">
        <ele>253.37</ele>
        <time>2021-12-12T08:51:19Z</time>
      </trkpt>
      <trkpt lat="44.20595" lon="5.02298">
        <ele>254.69</ele>
        <time>2021-12-12T08:51:38Z</time>
      </trkpt>
      <trkpt lat="44.20593" lon="5.02307">
        <ele>256.53</ele>
        <time>2021-12-12T08:51:47Z</time>
      </trkpt>
      <trkpt lat="44.20593" lon="5.02308">
        <ele>256.64</ele>
        <time>2021-12-12T08:51:48Z</time>
      </trkpt>
      <trkpt lat="44.20584" lon="5.02314">
        <ele>257.78</ele>
        <time>2021-12-12T08:52:03Z</time>
      </trkpt>
      <trkpt lat="44.20583" lon="5.02316">
        <ele>257.88</ele>
        <time>2021-12-12T08:52:05Z</time>
      </trkpt>
      <trkpt lat="44.20576" lon="5.02317">
        <ele>257.97</ele>
        <time>2021-12-12T08:52:16Z</time>
      </trkpt>
      <trkpt lat="44.20568" lon="5.02317">
        <ele>257.89</ele>
        <time>2021-12-12T08:52:24Z</time>
      </trkpt>
      <trkpt lat="44.20567" lon="5.02317">
        <ele>257.89</ele>
        <time>2021-12-12T08:52:25Z</time>
      </trkpt>
      <trkpt lat="44.20561" lon="5.02317">
        <ele>258.3</ele>
        <time>2021-12-12T08:52:34Z</time>
      </trkpt>
      <trkpt lat="44.20555" lon="5.0232">
        <ele>258.28</ele>
        <time>2021-12-12T08:52:46Z</time>
      </trkpt>
      <trkpt lat="44.20551" lon="5.0232">
        <ele>258.14</ele>
        <time>2021-12-12T08:52:56Z</time>
      </trkpt>
      <trkpt lat="44.2055" lon="5.02321">
        <ele>258.17</ele>
        <time>2021-12-12T08:53:23Z</time>
      </trkpt>
      <trkpt lat="44.20544" lon="5.02319">
        <ele>258.11</ele>
        <time>2021-12-12T08:53:42Z</time>
      </trkpt>
      <trkpt lat="44.20532" lon="5.02316">
        <ele>256.35</ele>
        <time>2021-12-12T08:53:56Z</time>
      </trkpt>
      <trkpt lat="44.20523" lon="5.02312">
        <ele>254.73</ele>
        <time>2021-12-12T08:54:07Z</time>
      </trkpt>
      <trkpt lat="44.20516" lon="5.02308">
        <ele>253.9</ele>
        <time>2021-12-12T08:54:19Z</time>
      </trkpt>
      <trkpt lat="44.20514" lon="5.02308">
        <ele>253.82</ele>
        <time>2021-12-12T08:54:21Z</time>
      </trkpt>
      <trkpt lat="44.20479" lon="5.02323">
        <ele>252.59</ele>
        <time>2021-12-12T08:54:53Z</time>
      </trkpt>
      <trkpt lat="44.20475" lon="5.02331">
        <ele>252.35</ele>
        <time>2021-12-12T08:55:03Z</time>
      </trkpt>
      <trkpt lat="44.20475" lon="5.02333">
        <ele>252.23</ele>
        <time>2021-12-12T08:55:04Z</time>
      </trkpt>
      <trkpt lat="44.20472" lon="5.02337">
        <ele>251.38</ele>
        <time>2021-12-12T08:55:14Z</time>
      </trkpt>
      <trkpt lat="44.20468" lon="5.02338">
        <ele>251.07</ele>
        <time>2021-12-12T08:55:24Z</time>
      </trkpt>
      <trkpt lat="44.20468" lon="5.02339">
        <ele>250.91</ele>
        <time>2021-12-12T08:55:28Z</time>
      </trkpt>
      <trkpt lat="44.20458" lon="5.02341">
        <ele>248.94</ele>
        <time>2021-12-12T08:55:44Z</time>
      </trkpt>
      <trkpt lat="44.20429" lon="5.02347">
        <ele>247.22</ele>
        <time>2021-12-12T08:56:00Z</time>
      </trkpt>
      <trkpt lat="44.20425" lon="5.02355">
        <ele>245.9</ele>
        <time>2021-12-12T08:56:12Z</time>
      </trkpt>
      <trkpt lat="44.20416" lon="5.02372">
        <ele>243.8</ele>
        <time>2021-12-12T08:56:30Z</time>
      </trkpt>
      <trkpt lat="44.20408" lon="5.02386">
        <ele>241.7</ele>
        <time>2021-12-12T08:56:47Z</time>
      </trkpt>
      <trkpt lat="44.20403" lon="5.02404">
        <ele>239.61</ele>
        <time>2021-12-12T08:57:02Z</time>
      </trkpt>
      <trkpt lat="44.20399" lon="5.02423">
        <ele>238.19</ele>
        <time>2021-12-12T08:57:16Z</time>
      </trkpt>
      <trkpt lat="44.20394" lon="5.02441">
        <ele>236.64</ele>
        <time>2021-12-12T08:57:29Z</time>
      </trkpt>
      <trkpt lat="44.20392" lon="5.02445">
        <ele>236.34</ele>
        <time>2021-12-12T08:57:32Z</time>
      </trkpt>
      <trkpt lat="44.20386" lon="5.0247">
        <ele>235.3</ele>
        <time>2021-12-12T08:57:47Z</time>
      </trkpt>
      <trkpt lat="44.2038" lon="5.02479">
        <ele>234.08</ele>
        <time>2021-12-12T08:58:01Z</time>
      </trkpt>
      <trkpt lat="44.20379" lon="5.02483">
        <ele>233.98</ele>
        <time>2021-12-12T08:58:05Z</time>
      </trkpt>
      <trkpt lat="44.20379" lon="5.02481">
        <ele>232.95</ele>
        <time>2021-12-12T08:58:25Z</time>
      </trkpt>
      <trkpt lat="44.20382" lon="5.02475">
        <ele>233.74</ele>
        <time>2021-12-12T08:58:37Z</time>
      </trkpt>
      <trkpt lat="44.20389" lon="5.02455">
        <ele>234.11</ele>
        <time>2021-12-12T08:58:53Z</time>
      </trkpt>
      <trkpt lat="44.2039" lon="5.02452">
        <ele>234.42</ele>
        <time>2021-12-12T08:58:57Z</time>
      </trkpt>
      <trkpt lat="44.20392" lon="5.02426">
        <ele>235.21</ele>
        <time>2021-12-12T08:59:11Z</time>
      </trkpt>
      <trkpt lat="44.20392" lon="5.02408">
        <ele>235.2</ele>
        <time>2021-12-12T08:59:23Z</time>
      </trkpt>
      <trkpt lat="44.20382" lon="5.02406">
        <ele>233.37</ele>
        <time>2021-12-12T08:59:33Z</time>
      </trkpt>
      <trkpt lat="44.20365" lon="5.02404">
        <ele>231.89</ele>
        <time>2021-12-12T08:59:46Z</time>
      </trkpt>
      <trkpt lat="44.20351" lon="5.02398">
        <ele>229.63</ele>
        <time>2021-12-12T09:00:02Z</time>
      </trkpt>
      <trkpt lat="44.20336" lon="5.02398">
        <ele>227.19</ele>
        <time>2021-12-12T09:00:18Z</time>
      </trkpt>
      <trkpt lat="44.20316" lon="5.02396">
        <ele>224.93</ele>
        <time>2021-12-12T09:00:36Z</time>
      </trkpt>
      <trkpt lat="44.20293" lon="5.02399">
        <ele>223.14</ele>
        <time>2021-12-12T09:00:56Z</time>
      </trkpt>
      <trkpt lat="44.20284" lon="5.02406">
        <ele>222.72</ele>
        <time>2021-12-12T09:01:04Z</time>
      </trkpt>
      <trkpt lat="44.20274" lon="5.02399">
        <ele>222.61</ele>
        <time>2021-12-12T09:01:14Z</time>
      </trkpt>
      <trkpt lat="44.20267" lon="5.02386">
        <ele>222.58</ele>
        <time>2021-12-12T09:01:25Z</time>
      </trkpt>
      <trkpt lat="44.20259" lon="5.02368">
        <ele>222.67</ele>
        <time>2021-12-12T09:01:38Z</time>
      </trkpt>
      <trkpt lat="44.20251" lon="5.02355">
        <ele>222.69</ele>
        <time>2021-12-12T09:01:49Z</time>
      </trkpt>
      <trkpt lat="44.20238" lon="5.0234">
        <ele>222.83</ele>
        <time>2021-12-12T09:02:08Z</time>
      </trkpt>
      <trkpt lat="44.20232" lon="5.02336">
        <ele>222.92</ele>
        <time>2021-12-12T09:02:24Z</time>
      </trkpt>
      <trkpt lat="44.20231" lon="5.02343">
        <ele>222.58</ele>
        <time>2021-12-12T09:02:37Z</time>
      </trkpt>
      <trkpt lat="44.20227" lon="5.02345">
        <ele>223.47</ele>
        <time>2021-12-12T09:02:58Z</time>
      </trkpt>
      <trkpt lat="44.20221" lon="5.02351">
        <ele>224.32</ele>
        <time>2021-12-12T09:03:11Z</time>
      </trkpt>
      <trkpt lat="44.2021" lon="5.02358">
        <ele>225.7</ele>
        <time>2021-12-12T09:03:24Z</time>
      </trkpt>
      <trkpt lat="44.20201" lon="5.02364">
        <ele>227.34</ele>
        <time>2021-12-12T09:03:36Z</time>
      </trkpt>
      <trkpt lat="44.20191" lon="5.02364">
        <ele>229.12</ele>
        <time>2021-12-12T09:03:48Z</time>
      </trkpt>
      <trkpt lat="44.20186" lon="5.02364">
        <ele>230.38</ele>
        <time>2021-12-12T09:04:05Z</time>
      </trkpt>
      <trkpt lat="44.20182" lon="5.02367">
        <ele>230.44</ele>
        <time>2021-12-12T09:04:10Z</time>
      </trkpt>
      <trkpt lat="44.20173" lon="5.02369">
        <ele>232.81</ele>
        <time>2021-12-12T09:04:22Z</time>
      </trkpt>
      <trkpt lat="44.20165" lon="5.02369">
        <ele>233.81</ele>
        <time>2021-12-12T09:04:29Z</time>
      </trkpt>
      <trkpt lat="44.20154" lon="5.02369">
        <ele>234.95</ele>
        <time>2021-12-12T09:04:40Z</time>
      </trkpt>
      <trkpt lat="44.20144" lon="5.02371">
        <ele>236.23</ele>
        <time>2021-12-12T09:04:52Z</time>
      </trkpt>
      <trkpt lat="44.20138" lon="5.0237">
        <ele>236.72</ele>
        <time>2021-12-12T09:04:57Z</time>
      </trkpt>
      <trkpt lat="44.2012" lon="5.02369">
        <ele>237.68</ele>
        <time>2021-12-12T09:05:12Z</time>
      </trkpt>
      <trkpt lat="44.20108" lon="5.02364">
        <ele>237.81</ele>
        <time>2021-12-12T09:05:25Z</time>
      </trkpt>
      <trkpt lat="44.20102" lon="5.02363">
        <ele>237.91</ele>
        <time>2021-12-12T09:05:33Z</time>
      </trkpt>
      <trkpt lat="44.20088" lon="5.02357">
        <ele>238.52</ele>
        <time>2021-12-12T09:05:46Z</time>
      </trkpt>
      <trkpt lat="44.20075" lon="5.02351">
        <ele>239.3</ele>
        <time>2021-12-12T09:06:00Z</time>
      </trkpt>
      <trkpt lat="44.20063" lon="5.02344">
        <ele>240.06</ele>
        <time>2021-12-12T09:06:13Z</time>
      </trkpt>
      <trkpt lat="44.20052" lon="5.02337">
        <ele>240.13</ele>
        <time>2021-12-12T09:06:26Z</time>
      </trkpt>
      <trkpt lat="44.20039" lon="5.02331">
        <ele>239.56</ele>
        <time>2021-12-12T09:06:40Z</time>
      </trkpt>
      <trkpt lat="44.20026" lon="5.02325">
        <ele>239.06</ele>
        <time>2021-12-12T09:06:54Z</time>
      </trkpt>
      <trkpt lat="44.20009" lon="5.02317">
        <ele>238.42</ele>
        <time>2021-12-12T09:07:08Z</time>
      </trkpt>
      <trkpt lat="44.19991" lon="5.02307">
        <ele>237.95</ele>
        <time>2021-12-12T09:07:21Z</time>
      </trkpt>
      <trkpt lat="44.1998" lon="5.02303">
        <ele>237.84</ele>
        <time>2021-12-12T09:07:32Z</time>
      </trkpt>
      <trkpt lat="44.19967" lon="5.02302">
        <ele>237.87</ele>
        <time>2021-12-12T09:07:47Z</time>
      </trkpt>
      <trkpt lat="44.19962" lon="5.023">
        <ele>237.89</ele>
        <time>2021-12-12T09:07:51Z</time>
      </trkpt>
      <trkpt lat="44.19945" lon="5.023">
        <ele>238.3</ele>
        <time>2021-12-12T09:08:04Z</time>
      </trkpt>
      <trkpt lat="44.19941" lon="5.023">
        <ele>238.34</ele>
        <time>2021-12-12T09:08:07Z</time>
      </trkpt>
      <trkpt lat="44.19931" lon="5.02299">
        <ele>238.35</ele>
        <time>2021-12-12T09:08:14Z</time>
      </trkpt>
      <trkpt lat="44.19921" lon="5.02297">
        <ele>238.46</ele>
        <time>2021-12-12T09:08:22Z</time>
      </trkpt>
      <trkpt lat="44.19903" lon="5.02298">
        <ele>239.07</ele>
        <time>2021-12-12T09:08:38Z</time>
      </trkpt>
      <trkpt lat="44.19888" lon="5.02303">
        <ele>240.07</ele>
        <time>2021-12-12T09:08:52Z</time>
      </trkpt>
      <trkpt lat="44.19874" lon="5.02311">
        <ele>241.01</ele>
        <time>2021-12-12T09:09:06Z</time>
      </trkpt>
      <trkpt lat="44.19861" lon="5.02317">
        <ele>241.63</ele>
        <time>2021-12-12T09:09:19Z</time>
      </trkpt>
      <trkpt lat="44.19848" lon="5.02319">
        <ele>242.16</ele>
        <time>2021-12-12T09:09:30Z</time>
      </trkpt>
      <trkpt lat="44.19836" lon="5.02317">
        <ele>242.94</ele>
        <time>2021-12-12T09:09:42Z</time>
      </trkpt>
      <trkpt lat="44.19813" lon="5.02317">
        <ele>241.19</ele>
        <time>2021-12-12T09:10:03Z</time>
      </trkpt>
      <trkpt lat="44.19794" lon="5.02317">
        <ele>239.79</ele>
        <time>2021-12-12T09:10:20Z</time>
      </trkpt>
      <trkpt lat="44.19782" lon="5.02321">
        <ele>238.45</ele>
        <time>2021-12-12T09:10:31Z</time>
      </trkpt>
      <trkpt lat="44.19775" lon="5.02321">
        <ele>237.81</ele>
        <time>2021-12-12T09:10:37Z</time>
      </trkpt>
      <trkpt lat="44.19769" lon="5.02323">
        <ele>237.46</ele>
        <time>2021-12-12T09:10:43Z</time>
      </trkpt>
      <trkpt lat="44.19761" lon="5.02324">
        <ele>237.15</ele>
        <time>2021-12-12T09:10:50Z</time>
      </trkpt>
      <trkpt lat="44.19746" lon="5.02329">
        <ele>236.64</ele>
        <time>2021-12-12T09:11:05Z</time>
      </trkpt>
      <trkpt lat="44.19743" lon="5.02329">
        <ele>236.64</ele>
        <time>2021-12-12T09:11:08Z</time>
      </trkpt>
      <trkpt lat="44.19737" lon="5.02332">
        <ele>236.61</ele>
        <time>2021-12-12T09:11:14Z</time>
      </trkpt>
      <trkpt lat="44.19723" lon="5.02337">
        <ele>236.56</ele>
        <time>2021-12-12T09:11:28Z</time>
      </trkpt>
      <trkpt lat="44.19718" lon="5.02339">
        <ele>236.47</ele>
        <time>2021-12-12T09:11:38Z</time>
      </trkpt>
      <trkpt lat="44.19713" lon="5.02337">
        <ele>236.07</ele>
        <time>2021-12-12T09:11:57Z</time>
      </trkpt>
      <trkpt lat="44.19706" lon="5.02334">
        <ele>235.73</ele>
        <time>2021-12-12T09:12:13Z</time>
      </trkpt>
      <trkpt lat="44.19693" lon="5.02337">
        <ele>235.12</ele>
        <time>2021-12-12T09:12:30Z</time>
      </trkpt>
      <trkpt lat="44.19679" lon="5.02341">
        <ele>235.17</ele>
        <time>2021-12-12T09:12:43Z</time>
      </trkpt>
      <trkpt lat="44.19677" lon="5.0234">
        <ele>235.2</ele>
        <time>2021-12-12T09:12:45Z</time>
      </trkpt>
      <trkpt lat="44.19671" lon="5.0234">
        <ele>235.24</ele>
        <time>2021-12-12T09:12:49Z</time>
      </trkpt>
      <trkpt lat="44.19652" lon="5.02342">
        <ele>235.24</ele>
        <time>2021-12-12T09:13:07Z</time>
      </trkpt>
      <trkpt lat="44.1964" lon="5.02343">
        <ele>235.18</ele>
        <time>2021-12-12T09:13:17Z</time>
      </trkpt>
      <trkpt lat="44.19639" lon="5.02344">
        <ele>235.18</ele>
        <time>2021-12-12T09:13:19Z</time>
      </trkpt>
      <trkpt lat="44.19621" lon="5.02344">
        <ele>235.03</ele>
        <time>2021-12-12T09:13:34Z</time>
      </trkpt>
      <trkpt lat="44.19606" lon="5.02344">
        <ele>235.03</ele>
        <time>2021-12-12T09:13:48Z</time>
      </trkpt>
      <trkpt lat="44.19592" lon="5.02344">
        <ele>234.76</ele>
        <time>2021-12-12T09:14:01Z</time>
      </trkpt>
      <trkpt lat="44.19574" lon="5.02345">
        <ele>234.41</ele>
        <time>2021-12-12T09:14:18Z</time>
      </trkpt>
      <trkpt lat="44.19569" lon="5.02346">
        <ele>234.14</ele>
        <time>2021-12-12T09:14:24Z</time>
      </trkpt>
      <trkpt lat="44.19556" lon="5.02344">
        <ele>233.77</ele>
        <time>2021-12-12T09:14:36Z</time>
      </trkpt>
      <trkpt lat="44.19553" lon="5.02344">
        <ele>233.52</ele>
        <time>2021-12-12T09:14:41Z</time>
      </trkpt>
      <trkpt lat="44.19543" lon="5.02342">
        <ele>233.42</ele>
        <time>2021-12-12T09:14:51Z</time>
      </trkpt>
      <trkpt lat="44.19525" lon="5.02338">
        <ele>233.45</ele>
        <time>2021-12-12T09:15:07Z</time>
      </trkpt>
      <trkpt lat="44.19508" lon="5.02335">
        <ele>233.57</ele>
        <time>2021-12-12T09:15:21Z</time>
      </trkpt>
      <trkpt lat="44.19506" lon="5.02334">
        <ele>233.6</ele>
        <time>2021-12-12T09:15:23Z</time>
      </trkpt>
      <trkpt lat="44.195" lon="5.02335">
        <ele>233.75</ele>
        <time>2021-12-12T09:15:29Z</time>
      </trkpt>
      <trkpt lat="44.19494" lon="5.02332">
        <ele>233.98</ele>
        <time>2021-12-12T09:15:34Z</time>
      </trkpt>
      <trkpt lat="44.19482" lon="5.0233">
        <ele>234.33</ele>
        <time>2021-12-12T09:15:45Z</time>
      </trkpt>
      <trkpt lat="44.19469" lon="5.02327">
        <ele>235.47</ele>
        <time>2021-12-12T09:15:57Z</time>
      </trkpt>
      <trkpt lat="44.19456" lon="5.02327">
        <ele>237.11</ele>
        <time>2021-12-12T09:16:11Z</time>
      </trkpt>
      <trkpt lat="44.19441" lon="5.0232">
        <ele>237.36</ele>
        <time>2021-12-12T09:16:26Z</time>
      </trkpt>
      <trkpt lat="44.19425" lon="5.02311">
        <ele>236.92</ele>
        <time>2021-12-12T09:16:41Z</time>
      </trkpt>
      <trkpt lat="44.19416" lon="5.02308">
        <ele>236.99</ele>
        <time>2021-12-12T09:16:51Z</time>
      </trkpt>
      <trkpt lat="44.19402" lon="5.023">
        <ele>237.05</ele>
        <time>2021-12-12T09:17:05Z</time>
      </trkpt>
      <trkpt lat="44.19388" lon="5.0229">
        <ele>237.47</ele>
        <time>2021-12-12T09:17:19Z</time>
      </trkpt>
      <trkpt lat="44.19373" lon="5.02281">
        <ele>237.49</ele>
        <time>2021-12-12T09:17:34Z</time>
      </trkpt>
      <trkpt lat="44.19365" lon="5.02278">
        <ele>237.15</ele>
        <time>2021-12-12T09:17:44Z</time>
      </trkpt>
      <trkpt lat="44.19352" lon="5.02275">
        <ele>235.63</ele>
        <time>2021-12-12T09:17:57Z</time>
      </trkpt>
      <trkpt lat="44.1934" lon="5.02273">
        <ele>235.15</ele>
        <time>2021-12-12T09:18:10Z</time>
      </trkpt>
      <trkpt lat="44.19338" lon="5.02273">
        <ele>235.12</ele>
        <time>2021-12-12T09:18:12Z</time>
      </trkpt>
      <trkpt lat="44.19328" lon="5.02273">
        <ele>235</ele>
        <time>2021-12-12T09:18:23Z</time>
      </trkpt>
      <trkpt lat="44.19323" lon="5.0227">
        <ele>234.98</ele>
        <time>2021-12-12T09:18:27Z</time>
      </trkpt>
      <trkpt lat="44.19319" lon="5.02269">
        <ele>234.89</ele>
        <time>2021-12-12T09:18:31Z</time>
      </trkpt>
      <trkpt lat="44.19315" lon="5.02269">
        <ele>234.94</ele>
        <time>2021-12-12T09:18:35Z</time>
      </trkpt>
      <trkpt lat="44.19298" lon="5.02263">
        <ele>235.16</ele>
        <time>2021-12-12T09:18:51Z</time>
      </trkpt>
      <trkpt lat="44.19286" lon="5.02258">
        <ele>235.43</ele>
        <time>2021-12-12T09:19:02Z</time>
      </trkpt>
      <trkpt lat="44.19274" lon="5.02254">
        <ele>235.71</ele>
        <time>2021-12-12T09:19:14Z</time>
      </trkpt>
      <trkpt lat="44.19272" lon="5.02251">
        <ele>236.32</ele>
        <time>2021-12-12T09:19:25Z</time>
      </trkpt>
      <trkpt lat="44.19271" lon="5.02256">
        <ele>236.91</ele>
        <time>2021-12-12T09:19:52Z</time>
      </trkpt>
      <trkpt lat="44.19269" lon="5.02268">
        <ele>237.05</ele>
        <time>2021-12-12T09:20:42Z</time>
      </trkpt>
      <trkpt lat="44.19276" lon="5.02276">
        <ele>236.99</ele>
        <time>2021-12-12T09:21:11Z</time>
      </trkpt>
      <trkpt lat="44.19278" lon="5.02292">
        <ele>240.1</ele>
        <time>2021-12-12T09:21:30Z</time>
      </trkpt>
      <trkpt lat="44.19275" lon="5.02306">
        <ele>243.15</ele>
        <time>2021-12-12T09:21:49Z</time>
      </trkpt>
      <trkpt lat="44.19272" lon="5.02313">
        <ele>244.85</ele>
        <time>2021-12-12T09:22:02Z</time>
      </trkpt>
      <trkpt lat="44.19264" lon="5.02326">
        <ele>247.99</ele>
        <time>2021-12-12T09:22:22Z</time>
      </trkpt>
      <trkpt lat="44.19253" lon="5.02332">
        <ele>251.09</ele>
        <time>2021-12-12T09:22:40Z</time>
      </trkpt>
      <trkpt lat="44.19243" lon="5.02334">
        <ele>253.16</ele>
        <time>2021-12-12T09:22:54Z</time>
      </trkpt>
      <trkpt lat="44.19235" lon="5.02337">
        <ele>255.48</ele>
        <time>2021-12-12T09:23:09Z</time>
      </trkpt>
      <trkpt lat="44.19226" lon="5.02342">
        <ele>258.31</ele>
        <time>2021-12-12T09:23:26Z</time>
      </trkpt>
      <trkpt lat="44.19218" lon="5.02348">
        <ele>261.05</ele>
        <time>2021-12-12T09:23:43Z</time>
      </trkpt>
      <trkpt lat="44.19211" lon="5.02354">
        <ele>263.56</ele>
        <time>2021-12-12T09:23:58Z</time>
      </trkpt>
      <trkpt lat="44.19201" lon="5.02363">
        <ele>266.29</ele>
        <time>2021-12-12T09:24:15Z</time>
      </trkpt>
      <trkpt lat="44.19188" lon="5.02367">
        <ele>268.72</ele>
        <time>2021-12-12T09:24:31Z</time>
      </trkpt>
      <trkpt lat="44.19187" lon="5.02379">
        <ele>268.9</ele>
        <time>2021-12-12T09:24:44Z</time>
      </trkpt>
      <trkpt lat="44.19202" lon="5.02383">
        <ele>271.02</ele>
        <time>2021-12-12T09:25:03Z</time>
      </trkpt>
      <trkpt lat="44.1922" lon="5.02384">
        <ele>271.75</ele>
        <time>2021-12-12T09:25:22Z</time>
      </trkpt>
      <trkpt lat="44.19233" lon="5.02391">
        <ele>274.01</ele>
        <time>2021-12-12T09:25:40Z</time>
      </trkpt>
      <trkpt lat="44.19235" lon="5.02399">
        <ele>276.8</ele>
        <time>2021-12-12T09:25:58Z</time>
      </trkpt>
      <trkpt lat="44.19222" lon="5.02401">
        <ele>279.46</ele>
        <time>2021-12-12T09:26:13Z</time>
      </trkpt>
      <trkpt lat="44.19213" lon="5.02395">
        <ele>280.72</ele>
        <time>2021-12-12T09:26:26Z</time>
      </trkpt>
      <trkpt lat="44.19212" lon="5.02397">
        <ele>281.24</ele>
        <time>2021-12-12T09:26:46Z</time>
      </trkpt>
      <trkpt lat="44.1921" lon="5.02399">
        <ele>281.33</ele>
        <time>2021-12-12T09:27:01Z</time>
      </trkpt>
      <trkpt lat="44.19215" lon="5.02398">
        <ele>281.34</ele>
        <time>2021-12-12T09:27:09Z</time>
      </trkpt>
      <trkpt lat="44.19223" lon="5.02395">
        <ele>281.11</ele>
        <time>2021-12-12T09:27:20Z</time>
      </trkpt>
      <trkpt lat="44.1923" lon="5.02392">
        <ele>280.44</ele>
        <time>2021-12-12T09:27:30Z</time>
      </trkpt>
      <trkpt lat="44.19233" lon="5.02392">
        <ele>279.34</ele>
        <time>2021-12-12T09:27:48Z</time>
      </trkpt>
      <trkpt lat="44.1923" lon="5.02386">
        <ele>279.45</ele>
        <time>2021-12-12T09:28:15Z</time>
      </trkpt>
      <trkpt lat="44.19231" lon="5.02389">
        <ele>279.54</ele>
        <time>2021-12-12T09:28:45Z</time>
      </trkpt>
      <trkpt lat="44.19232" lon="5.02392">
        <ele>279.75</ele>
        <time>2021-12-12T09:29:22Z</time>
      </trkpt>
      <trkpt lat="44.19232" lon="5.02397">
        <ele>279.93</ele>
        <time>2021-12-12T09:30:06Z</time>
      </trkpt>
      <trkpt lat="44.19229" lon="5.02405">
        <ele>281.93</ele>
        <time>2021-12-12T09:30:24Z</time>
      </trkpt>
      <trkpt lat="44.19223" lon="5.02413">
        <ele>284.42</ele>
        <time>2021-12-12T09:30:41Z</time>
      </trkpt>
      <trkpt lat="44.19224" lon="5.02425">
        <ele>287.61</ele>
        <time>2021-12-12T09:30:59Z</time>
      </trkpt>
      <trkpt lat="44.19237" lon="5.02436">
        <ele>289.79</ele>
        <time>2021-12-12T09:31:16Z</time>
      </trkpt>
      <trkpt lat="44.19257" lon="5.02452">
        <ele>291.58</ele>
        <time>2021-12-12T09:31:42Z</time>
      </trkpt>
      <trkpt lat="44.19279" lon="5.02455">
        <ele>293.49</ele>
        <time>2021-12-12T09:32:05Z</time>
      </trkpt>
      <trkpt lat="44.19295" lon="5.02459">
        <ele>294.9</ele>
        <time>2021-12-12T09:32:24Z</time>
      </trkpt>
      <trkpt lat="44.19307" lon="5.02477">
        <ele>296.17</ele>
        <time>2021-12-12T09:32:43Z</time>
      </trkpt>
      <trkpt lat="44.19311" lon="5.02491">
        <ele>297.61</ele>
        <time>2021-12-12T09:33:01Z</time>
      </trkpt>
      <trkpt lat="44.19314" lon="5.02503">
        <ele>300.62</ele>
        <time>2021-12-12T09:33:17Z</time>
      </trkpt>
      <trkpt lat="44.19325" lon="5.02518">
        <ele>303.59</ele>
        <time>2021-12-12T09:33:39Z</time>
      </trkpt>
      <trkpt lat="44.19336" lon="5.02527">
        <ele>304.31</ele>
        <time>2021-12-12T09:34:00Z</time>
      </trkpt>
      <trkpt lat="44.19342" lon="5.02537">
        <ele>307.36</ele>
        <time>2021-12-12T09:34:14Z</time>
      </trkpt>
      <trkpt lat="44.19354" lon="5.02541">
        <ele>310.4</ele>
        <time>2021-12-12T09:34:33Z</time>
      </trkpt>
      <trkpt lat="44.19365" lon="5.02551">
        <ele>313.46</ele>
        <time>2021-12-12T09:34:51Z</time>
      </trkpt>
      <trkpt lat="44.1936" lon="5.02553">
        <ele>314.79</ele>
        <time>2021-12-12T09:35:07Z</time>
      </trkpt>
      <trkpt lat="44.19358" lon="5.02548">
        <ele>314.69</ele>
        <time>2021-12-12T09:35:30Z</time>
      </trkpt>
      <trkpt lat="44.1936" lon="5.02543">
        <ele>314.87</ele>
        <time>2021-12-12T09:35:52Z</time>
      </trkpt>
      <trkpt lat="44.1936" lon="5.02541">
        <ele>314.92</ele>
        <time>2021-12-12T09:36:33Z</time>
      </trkpt>
      <trkpt lat="44.19359" lon="5.02548">
        <ele>315.1</ele>
        <time>2021-12-12T09:37:11Z</time>
      </trkpt>
      <trkpt lat="44.19351" lon="5.0256">
        <ele>315.89</ele>
        <time>2021-12-12T09:37:29Z</time>
      </trkpt>
      <trkpt lat="44.19334" lon="5.02575">
        <ele>318.08</ele>
        <time>2021-12-12T09:37:47Z</time>
      </trkpt>
      <trkpt lat="44.19325" lon="5.02583">
        <ele>318.36</ele>
        <time>2021-12-12T09:38:01Z</time>
      </trkpt>
      <trkpt lat="44.19304" lon="5.02583">
        <ele>320.02</ele>
        <time>2021-12-12T09:38:21Z</time>
      </trkpt>
      <trkpt lat="44.19291" lon="5.02578">
        <ele>320.35</ele>
        <time>2021-12-12T09:38:36Z</time>
      </trkpt>
      <trkpt lat="44.19279" lon="5.02576">
        <ele>321.92</ele>
        <time>2021-12-12T09:38:51Z</time>
      </trkpt>
      <trkpt lat="44.19267" lon="5.02575">
        <ele>322.8</ele>
        <time>2021-12-12T09:39:03Z</time>
      </trkpt>
      <trkpt lat="44.19253" lon="5.02573">
        <ele>323.52</ele>
        <time>2021-12-12T09:39:20Z</time>
      </trkpt>
      <trkpt lat="44.19238" lon="5.0256">
        <ele>324.72</ele>
        <time>2021-12-12T09:39:38Z</time>
      </trkpt>
      <trkpt lat="44.19228" lon="5.02549">
        <ele>325.69</ele>
        <time>2021-12-12T09:39:52Z</time>
      </trkpt>
      <trkpt lat="44.19218" lon="5.0254">
        <ele>327.34</ele>
        <time>2021-12-12T09:40:07Z</time>
      </trkpt>
      <trkpt lat="44.19208" lon="5.02529">
        <ele>328.77</ele>
        <time>2021-12-12T09:40:21Z</time>
      </trkpt>
      <trkpt lat="44.19196" lon="5.02528">
        <ele>331.07</ele>
        <time>2021-12-12T09:40:37Z</time>
      </trkpt>
      <trkpt lat="44.19195" lon="5.02543">
        <ele>332.22</ele>
        <time>2021-12-12T09:40:55Z</time>
      </trkpt>
      <trkpt lat="44.1919" lon="5.02552">
        <ele>333.58</ele>
        <time>2021-12-12T09:41:04Z</time>
      </trkpt>
      <trkpt lat="44.19191" lon="5.02564">
        <ele>334.07</ele>
        <time>2021-12-12T09:41:33Z</time>
      </trkpt>
      <trkpt lat="44.19191" lon="5.02565">
        <ele>334.07</ele>
        <time>2021-12-12T09:41:34Z</time>
      </trkpt>
      <trkpt lat="44.1919" lon="5.02569">
        <ele>333.99</ele>
        <time>2021-12-12T09:42:09Z</time>
      </trkpt>
      <trkpt lat="44.19193" lon="5.02562">
        <ele>333.52</ele>
        <time>2021-12-12T09:42:58Z</time>
      </trkpt>
      <trkpt lat="44.19188" lon="5.02568">
        <ele>334</ele>
        <time>2021-12-12T09:43:29Z</time>
      </trkpt>
      <trkpt lat="44.19194" lon="5.02579">
        <ele>335.89</ele>
        <time>2021-12-12T09:43:47Z</time>
      </trkpt>
      <trkpt lat="44.19201" lon="5.02591">
        <ele>338.4</ele>
        <time>2021-12-12T09:44:04Z</time>
      </trkpt>
      <trkpt lat="44.19206" lon="5.02601">
        <ele>340.56</ele>
        <time>2021-12-12T09:44:18Z</time>
      </trkpt>
      <trkpt lat="44.19216" lon="5.02612">
        <ele>342.1</ele>
        <time>2021-12-12T09:44:33Z</time>
      </trkpt>
      <trkpt lat="44.19223" lon="5.02621">
        <ele>343.45</ele>
        <time>2021-12-12T09:44:44Z</time>
      </trkpt>
      <trkpt lat="44.19226" lon="5.02626">
        <ele>344.1</ele>
        <time>2021-12-12T09:44:51Z</time>
      </trkpt>
      <trkpt lat="44.19228" lon="5.02633">
        <ele>344.65</ele>
        <time>2021-12-12T09:45:24Z</time>
      </trkpt>
      <trkpt lat="44.1923" lon="5.02641">
        <ele>344.57</ele>
        <time>2021-12-12T09:45:40Z</time>
      </trkpt>
      <trkpt lat="44.19232" lon="5.02651">
        <ele>346.76</ele>
        <time>2021-12-12T09:45:55Z</time>
      </trkpt>
      <trkpt lat="44.19227" lon="5.02652">
        <ele>349</ele>
        <time>2021-12-12T09:46:10Z</time>
      </trkpt>
      <trkpt lat="44.19215" lon="5.02649">
        <ele>351.72</ele>
        <time>2021-12-12T09:46:28Z</time>
      </trkpt>
      <trkpt lat="44.19205" lon="5.02644">
        <ele>353.08</ele>
        <time>2021-12-12T09:46:41Z</time>
      </trkpt>
      <trkpt lat="44.19195" lon="5.02641">
        <ele>354.74</ele>
        <time>2021-12-12T09:46:58Z</time>
      </trkpt>
      <trkpt lat="44.19189" lon="5.02648">
        <ele>356.58</ele>
        <time>2021-12-12T09:47:11Z</time>
      </trkpt>
      <trkpt lat="44.19181" lon="5.02652">
        <ele>358.23</ele>
        <time>2021-12-12T09:47:24Z</time>
      </trkpt>
      <trkpt lat="44.19173" lon="5.02654">
        <ele>361.18</ele>
        <time>2021-12-12T09:47:38Z</time>
      </trkpt>
      <trkpt lat="44.19169" lon="5.02654">
        <ele>362.6</ele>
        <time>2021-12-12T09:47:50Z</time>
      </trkpt>
      <trkpt lat="44.19163" lon="5.02654">
        <ele>364.04</ele>
        <time>2021-12-12T09:48:04Z</time>
      </trkpt>
      <trkpt lat="44.19156" lon="5.02656">
        <ele>365.34</ele>
        <time>2021-12-12T09:48:18Z</time>
      </trkpt>
      <trkpt lat="44.19149" lon="5.02661">
        <ele>367.41</ele>
        <time>2021-12-12T09:48:33Z</time>
      </trkpt>
      <trkpt lat="44.19139" lon="5.02668">
        <ele>369.47</ele>
        <time>2021-12-12T09:48:50Z</time>
      </trkpt>
      <trkpt lat="44.19131" lon="5.02675">
        <ele>371.72</ele>
        <time>2021-12-12T09:49:04Z</time>
      </trkpt>
      <trkpt lat="44.19121" lon="5.02678">
        <ele>373.72</ele>
        <time>2021-12-12T09:49:19Z</time>
      </trkpt>
      <trkpt lat="44.19111" lon="5.02677">
        <ele>375.91</ele>
        <time>2021-12-12T09:49:34Z</time>
      </trkpt>
      <trkpt lat="44.19101" lon="5.02682">
        <ele>378.89</ele>
        <time>2021-12-12T09:49:50Z</time>
      </trkpt>
      <trkpt lat="44.19093" lon="5.02686">
        <ele>381.21</ele>
        <time>2021-12-12T09:50:05Z</time>
      </trkpt>
      <trkpt lat="44.19083" lon="5.02691">
        <ele>383.66</ele>
        <time>2021-12-12T09:50:22Z</time>
      </trkpt>
      <trkpt lat="44.19076" lon="5.02701">
        <ele>385.55</ele>
        <time>2021-12-12T09:50:37Z</time>
      </trkpt>
      <trkpt lat="44.19069" lon="5.0271">
        <ele>387.67</ele>
        <time>2021-12-12T09:50:52Z</time>
      </trkpt>
      <trkpt lat="44.19062" lon="5.02717">
        <ele>389.47</ele>
        <time>2021-12-12T09:51:04Z</time>
      </trkpt>
      <trkpt lat="44.19053" lon="5.02722">
        <ele>391.49</ele>
        <time>2021-12-12T09:51:18Z</time>
      </trkpt>
      <trkpt lat="44.19048" lon="5.02725">
        <ele>392.45</ele>
        <time>2021-12-12T09:51:36Z</time>
      </trkpt>
      <trkpt lat="44.19043" lon="5.02734">
        <ele>394.12</ele>
        <time>2021-12-12T09:51:52Z</time>
      </trkpt>
      <trkpt lat="44.19036" lon="5.02743">
        <ele>396.96</ele>
        <time>2021-12-12T09:52:10Z</time>
      </trkpt>
      <trkpt lat="44.19032" lon="5.02755">
        <ele>400.09</ele>
        <time>2021-12-12T09:52:26Z</time>
      </trkpt>
      <trkpt lat="44.19026" lon="5.02766">
        <ele>402.5</ele>
        <time>2021-12-12T09:52:43Z</time>
      </trkpt>
      <trkpt lat="44.19017" lon="5.0278">
        <ele>404.61</ele>
        <time>2021-12-12T09:53:00Z</time>
      </trkpt>
      <trkpt lat="44.19009" lon="5.02791">
        <ele>406.09</ele>
        <time>2021-12-12T09:53:16Z</time>
      </trkpt>
      <trkpt lat="44.19003" lon="5.02801">
        <ele>407.72</ele>
        <time>2021-12-12T09:53:31Z</time>
      </trkpt>
      <trkpt lat="44.19002" lon="5.02799">
        <ele>406.33</ele>
        <time>2021-12-12T09:54:07Z</time>
      </trkpt>
      <trkpt lat="44.19002" lon="5.02795">
        <ele>406.07</ele>
        <time>2021-12-12T09:54:33Z</time>
      </trkpt>
      <trkpt lat="44.19001" lon="5.02795">
        <ele>405.68</ele>
        <time>2021-12-12T09:55:28Z</time>
      </trkpt>
      <trkpt lat="44.19" lon="5.02791">
        <ele>405.53</ele>
        <time>2021-12-12T09:57:18Z</time>
      </trkpt>
      <trkpt lat="44.19001" lon="5.02793">
        <ele>406.41</ele>
        <time>2021-12-12T09:57:41Z</time>
      </trkpt>
      <trkpt lat="44.19002" lon="5.02795">
        <ele>406.46</ele>
        <time>2021-12-12T09:58:01Z</time>
      </trkpt>
      <trkpt lat="44.19002" lon="5.02794">
        <ele>406.58</ele>
        <time>2021-12-12T09:58:36Z</time>
      </trkpt>
      <trkpt lat="44.19004" lon="5.02796">
        <ele>406.74</ele>
        <time>2021-12-12T09:59:08Z</time>
      </trkpt>
      <trkpt lat="44.19005" lon="5.02795">
        <ele>406.82</ele>
        <time>2021-12-12T09:59:36Z</time>
      </trkpt>
      <trkpt lat="44.19007" lon="5.02796">
        <ele>406.7</ele>
        <time>2021-12-12T10:00:04Z</time>
      </trkpt>
      <trkpt lat="44.19006" lon="5.02798">
        <ele>406.81</ele>
        <time>2021-12-12T10:00:36Z</time>
      </trkpt>
      <trkpt lat="44.19006" lon="5.02797">
        <ele>406.7</ele>
        <time>2021-12-12T10:01:02Z</time>
      </trkpt>
      <trkpt lat="44.19002" lon="5.02799">
        <ele>406.74</ele>
        <time>2021-12-12T10:01:31Z</time>
      </trkpt>
      <trkpt lat="44.19" lon="5.02795">
        <ele>406.79</ele>
        <time>2021-12-12T10:01:54Z</time>
      </trkpt>
      <trkpt lat="44.18998" lon="5.02794">
        <ele>406.81</ele>
        <time>2021-12-12T10:02:31Z</time>
      </trkpt>
      <trkpt lat="44.18998" lon="5.02792">
        <ele>406.59</ele>
        <time>2021-12-12T10:03:00Z</time>
      </trkpt>
      <trkpt lat="44.19001" lon="5.02794">
        <ele>406.36</ele>
        <time>2021-12-12T10:04:13Z</time>
      </trkpt>
      <trkpt lat="44.18996" lon="5.02795">
        <ele>406.5</ele>
        <time>2021-12-12T10:04:37Z</time>
      </trkpt>
      <trkpt lat="44.18984" lon="5.02793">
        <ele>405.94</ele>
        <time>2021-12-12T10:04:51Z</time>
      </trkpt>
      <trkpt lat="44.18969" lon="5.02789">
        <ele>404.39</ele>
        <time>2021-12-12T10:05:09Z</time>
      </trkpt>
      <trkpt lat="44.18956" lon="5.02793">
        <ele>402.74</ele>
        <time>2021-12-12T10:05:25Z</time>
      </trkpt>
      <trkpt lat="44.18944" lon="5.02799">
        <ele>400.65</ele>
        <time>2021-12-12T10:05:39Z</time>
      </trkpt>
      <trkpt lat="44.18933" lon="5.02789">
        <ele>398.05</ele>
        <time>2021-12-12T10:05:55Z</time>
      </trkpt>
      <trkpt lat="44.18925" lon="5.02773">
        <ele>395.03</ele>
        <time>2021-12-12T10:06:11Z</time>
      </trkpt>
      <trkpt lat="44.18916" lon="5.02761">
        <ele>392.81</ele>
        <time>2021-12-12T10:06:25Z</time>
      </trkpt>
      <trkpt lat="44.18898" lon="5.02754">
        <ele>390.05</ele>
        <time>2021-12-12T10:06:42Z</time>
      </trkpt>
      <trkpt lat="44.18881" lon="5.02752">
        <ele>389.53</ele>
        <time>2021-12-12T10:06:57Z</time>
      </trkpt>
      <trkpt lat="44.18866" lon="5.02751">
        <ele>389.24</ele>
        <time>2021-12-12T10:07:11Z</time>
      </trkpt>
      <trkpt lat="44.18851" lon="5.02758">
        <ele>389.11</ele>
        <time>2021-12-12T10:07:24Z</time>
      </trkpt>
      <trkpt lat="44.18835" lon="5.02763">
        <ele>388.99</ele>
        <time>2021-12-12T10:07:39Z</time>
      </trkpt>
      <trkpt lat="44.18818" lon="5.02768">
        <ele>387.74</ele>
        <time>2021-12-12T10:07:57Z</time>
      </trkpt>
      <trkpt lat="44.18804" lon="5.02766">
        <ele>386.07</ele>
        <time>2021-12-12T10:08:13Z</time>
      </trkpt>
      <trkpt lat="44.1879" lon="5.02764">
        <ele>384.11</ele>
        <time>2021-12-12T10:08:30Z</time>
      </trkpt>
      <trkpt lat="44.18775" lon="5.02758">
        <ele>382.08</ele>
        <time>2021-12-12T10:08:47Z</time>
      </trkpt>
      <trkpt lat="44.18762" lon="5.02745">
        <ele>378.92</ele>
        <time>2021-12-12T10:09:06Z</time>
      </trkpt>
      <trkpt lat="44.18752" lon="5.02735">
        <ele>376.81</ele>
        <time>2021-12-12T10:09:20Z</time>
      </trkpt>
      <trkpt lat="44.18751" lon="5.02734">
        <ele>376.65</ele>
        <time>2021-12-12T10:09:21Z</time>
      </trkpt>
      <trkpt lat="44.18735" lon="5.02723">
        <ele>373.65</ele>
        <time>2021-12-12T10:09:37Z</time>
      </trkpt>
      <trkpt lat="44.1872" lon="5.02714">
        <ele>371.93</ele>
        <time>2021-12-12T10:09:52Z</time>
      </trkpt>
      <trkpt lat="44.18706" lon="5.027">
        <ele>370.42</ele>
        <time>2021-12-12T10:10:08Z</time>
      </trkpt>
      <trkpt lat="44.187" lon="5.02689">
        <ele>369.63</ele>
        <time>2021-12-12T10:10:18Z</time>
      </trkpt>
      <trkpt lat="44.18689" lon="5.02668">
        <ele>368.31</ele>
        <time>2021-12-12T10:10:35Z</time>
      </trkpt>
      <trkpt lat="44.18675" lon="5.02652">
        <ele>368.21</ele>
        <time>2021-12-12T10:10:51Z</time>
      </trkpt>
      <trkpt lat="44.18655" lon="5.02644">
        <ele>367.01</ele>
        <time>2021-12-12T10:11:10Z</time>
      </trkpt>
      <trkpt lat="44.18652" lon="5.02642">
        <ele>366.85</ele>
        <time>2021-12-12T10:11:14Z</time>
      </trkpt>
      <trkpt lat="44.18634" lon="5.02639">
        <ele>365.66</ele>
        <time>2021-12-12T10:11:30Z</time>
      </trkpt>
      <trkpt lat="44.18623" lon="5.02648">
        <ele>364.72</ele>
        <time>2021-12-12T10:11:43Z</time>
      </trkpt>
      <trkpt lat="44.18624" lon="5.02662">
        <ele>364.39</ele>
        <time>2021-12-12T10:11:59Z</time>
      </trkpt>
      <trkpt lat="44.18629" lon="5.02677">
        <ele>363.08</ele>
        <time>2021-12-12T10:12:14Z</time>
      </trkpt>
      <trkpt lat="44.18641" lon="5.02689">
        <ele>360.95</ele>
        <time>2021-12-12T10:12:27Z</time>
      </trkpt>
      <trkpt lat="44.18652" lon="5.02706">
        <ele>359.33</ele>
        <time>2021-12-12T10:12:46Z</time>
      </trkpt>
      <trkpt lat="44.18659" lon="5.0272">
        <ele>357.59</ele>
        <time>2021-12-12T10:13:04Z</time>
      </trkpt>
      <trkpt lat="44.18665" lon="5.02736">
        <ele>356.22</ele>
        <time>2021-12-12T10:13:18Z</time>
      </trkpt>
      <trkpt lat="44.18669" lon="5.0275">
        <ele>354.87</ele>
        <time>2021-12-12T10:13:27Z</time>
      </trkpt>
      <trkpt lat="44.18675" lon="5.02765">
        <ele>353.65</ele>
        <time>2021-12-12T10:13:41Z</time>
      </trkpt>
      <trkpt lat="44.1869" lon="5.02777">
        <ele>351.78</ele>
        <time>2021-12-12T10:13:59Z</time>
      </trkpt>
      <trkpt lat="44.18698" lon="5.02789">
        <ele>349.64</ele>
        <time>2021-12-12T10:14:14Z</time>
      </trkpt>
      <trkpt lat="44.18703" lon="5.02804">
        <ele>347.76</ele>
        <time>2021-12-12T10:14:27Z</time>
      </trkpt>
      <trkpt lat="44.18701" lon="5.02826">
        <ele>345.87</ele>
        <time>2021-12-12T10:14:42Z</time>
      </trkpt>
      <trkpt lat="44.187" lon="5.02843">
        <ele>344.34</ele>
        <time>2021-12-12T10:14:57Z</time>
      </trkpt>
      <trkpt lat="44.18703" lon="5.0286">
        <ele>343.43</ele>
        <time>2021-12-12T10:15:09Z</time>
      </trkpt>
      <trkpt lat="44.18708" lon="5.02881">
        <ele>341.75</ele>
        <time>2021-12-12T10:15:25Z</time>
      </trkpt>
      <trkpt lat="44.18711" lon="5.02885">
        <ele>341.23</ele>
        <time>2021-12-12T10:15:29Z</time>
      </trkpt>
      <trkpt lat="44.18721" lon="5.02901">
        <ele>340.04</ele>
        <time>2021-12-12T10:15:43Z</time>
      </trkpt>
      <trkpt lat="44.18731" lon="5.02908">
        <ele>338.62</ele>
        <time>2021-12-12T10:15:55Z</time>
      </trkpt>
      <trkpt lat="44.18742" lon="5.02915">
        <ele>337.43</ele>
        <time>2021-12-12T10:16:06Z</time>
      </trkpt>
      <trkpt lat="44.18745" lon="5.02919">
        <ele>336.95</ele>
        <time>2021-12-12T10:16:10Z</time>
      </trkpt>
      <trkpt lat="44.18754" lon="5.02922">
        <ele>335.93</ele>
        <time>2021-12-12T10:16:21Z</time>
      </trkpt>
      <trkpt lat="44.18766" lon="5.02929">
        <ele>334.79</ele>
        <time>2021-12-12T10:16:35Z</time>
      </trkpt>
      <trkpt lat="44.18781" lon="5.02937">
        <ele>333.71</ele>
        <time>2021-12-12T10:16:49Z</time>
      </trkpt>
      <trkpt lat="44.18796" lon="5.02939">
        <ele>332.64</ele>
        <time>2021-12-12T10:17:03Z</time>
      </trkpt>
      <trkpt lat="44.18807" lon="5.02941">
        <ele>331.65</ele>
        <time>2021-12-12T10:17:15Z</time>
      </trkpt>
      <trkpt lat="44.18821" lon="5.02946">
        <ele>330.85</ele>
        <time>2021-12-12T10:17:28Z</time>
      </trkpt>
      <trkpt lat="44.18837" lon="5.02949">
        <ele>329.86</ele>
        <time>2021-12-12T10:17:44Z</time>
      </trkpt>
      <trkpt lat="44.18847" lon="5.02956">
        <ele>329.4</ele>
        <time>2021-12-12T10:17:53Z</time>
      </trkpt>
      <trkpt lat="44.18858" lon="5.02965">
        <ele>328.23</ele>
        <time>2021-12-12T10:18:06Z</time>
      </trkpt>
      <trkpt lat="44.18868" lon="5.02975">
        <ele>327.21</ele>
        <time>2021-12-12T10:18:20Z</time>
      </trkpt>
      <trkpt lat="44.18879" lon="5.02997">
        <ele>326.13</ele>
        <time>2021-12-12T10:18:42Z</time>
      </trkpt>
      <trkpt lat="44.18891" lon="5.03009">
        <ele>325.24</ele>
        <time>2021-12-12T10:18:58Z</time>
      </trkpt>
      <trkpt lat="44.18908" lon="5.03012">
        <ele>323.82</ele>
        <time>2021-12-12T10:19:14Z</time>
      </trkpt>
      <trkpt lat="44.18919" lon="5.03014">
        <ele>323.26</ele>
        <time>2021-12-12T10:19:26Z</time>
      </trkpt>
      <trkpt lat="44.18931" lon="5.03017">
        <ele>321.65</ele>
        <time>2021-12-12T10:19:40Z</time>
      </trkpt>
      <trkpt lat="44.1895" lon="5.03031">
        <ele>320.75</ele>
        <time>2021-12-12T10:19:56Z</time>
      </trkpt>
      <trkpt lat="44.18958" lon="5.03044">
        <ele>320.22</ele>
        <time>2021-12-12T10:20:08Z</time>
      </trkpt>
      <trkpt lat="44.18967" lon="5.03054">
        <ele>320.2</ele>
        <time>2021-12-12T10:20:20Z</time>
      </trkpt>
      <trkpt lat="44.18984" lon="5.03067">
        <ele>320.39</ele>
        <time>2021-12-12T10:20:35Z</time>
      </trkpt>
      <trkpt lat="44.18988" lon="5.03071">
        <ele>320.39</ele>
        <time>2021-12-12T10:20:39Z</time>
      </trkpt>
      <trkpt lat="44.18999" lon="5.03076">
        <ele>320.55</ele>
        <time>2021-12-12T10:20:52Z</time>
      </trkpt>
      <trkpt lat="44.19015" lon="5.03084">
        <ele>322.3</ele>
        <time>2021-12-12T10:21:10Z</time>
      </trkpt>
      <trkpt lat="44.19031" lon="5.03087">
        <ele>322.93</ele>
        <time>2021-12-12T10:21:25Z</time>
      </trkpt>
      <trkpt lat="44.19042" lon="5.0308">
        <ele>323.61</ele>
        <time>2021-12-12T10:21:38Z</time>
      </trkpt>
      <trkpt lat="44.19053" lon="5.03071">
        <ele>323.71</ele>
        <time>2021-12-12T10:21:50Z</time>
      </trkpt>
      <trkpt lat="44.19065" lon="5.03063">
        <ele>323.49</ele>
        <time>2021-12-12T10:22:06Z</time>
      </trkpt>
      <trkpt lat="44.19065" lon="5.03077">
        <ele>322.26</ele>
        <time>2021-12-12T10:22:22Z</time>
      </trkpt>
      <trkpt lat="44.19058" lon="5.03075">
        <ele>321.12</ele>
        <time>2021-12-12T10:22:37Z</time>
      </trkpt>
      <trkpt lat="44.19047" lon="5.03078">
        <ele>319.62</ele>
        <time>2021-12-12T10:22:53Z</time>
      </trkpt>
      <trkpt lat="44.19032" lon="5.03092">
        <ele>316.93</ele>
        <time>2021-12-12T10:23:14Z</time>
      </trkpt>
      <trkpt lat="44.19015" lon="5.03101">
        <ele>314.23</ele>
        <time>2021-12-12T10:23:35Z</time>
      </trkpt>
      <trkpt lat="44.18993" lon="5.031">
        <ele>311.21</ele>
        <time>2021-12-12T10:23:59Z</time>
      </trkpt>
      <trkpt lat="44.18982" lon="5.03096">
        <ele>310.25</ele>
        <time>2021-12-12T10:24:13Z</time>
      </trkpt>
      <trkpt lat="44.18968" lon="5.03086">
        <ele>308.78</ele>
        <time>2021-12-12T10:24:30Z</time>
      </trkpt>
      <trkpt lat="44.18954" lon="5.03077">
        <ele>307.56</ele>
        <time>2021-12-12T10:24:48Z</time>
      </trkpt>
      <trkpt lat="44.18941" lon="5.03067">
        <ele>306.29</ele>
        <time>2021-12-12T10:25:07Z</time>
      </trkpt>
      <trkpt lat="44.18929" lon="5.03063">
        <ele>305.33</ele>
        <time>2021-12-12T10:25:22Z</time>
      </trkpt>
      <trkpt lat="44.18934" lon="5.03071">
        <ele>304.49</ele>
        <time>2021-12-12T10:25:32Z</time>
      </trkpt>
      <trkpt lat="44.1894" lon="5.03075">
        <ele>303.33</ele>
        <time>2021-12-12T10:25:38Z</time>
      </trkpt>
      <trkpt lat="44.18951" lon="5.03086">
        <ele>302.08</ele>
        <time>2021-12-12T10:25:52Z</time>
      </trkpt>
      <trkpt lat="44.18963" lon="5.031">
        <ele>301</ele>
        <time>2021-12-12T10:26:06Z</time>
      </trkpt>
      <trkpt lat="44.18973" lon="5.03115">
        <ele>300.06</ele>
        <time>2021-12-12T10:26:19Z</time>
      </trkpt>
      <trkpt lat="44.18978" lon="5.03128">
        <ele>298.93</ele>
        <time>2021-12-12T10:26:30Z</time>
      </trkpt>
      <trkpt lat="44.18978" lon="5.03146">
        <ele>297.49</ele>
        <time>2021-12-12T10:26:44Z</time>
      </trkpt>
      <trkpt lat="44.18968" lon="5.03151">
        <ele>296.56</ele>
        <time>2021-12-12T10:26:58Z</time>
      </trkpt>
      <trkpt lat="44.18952" lon="5.03154">
        <ele>293.52</ele>
        <time>2021-12-12T10:27:16Z</time>
      </trkpt>
      <trkpt lat="44.18941" lon="5.03161">
        <ele>290.89</ele>
        <time>2021-12-12T10:27:31Z</time>
      </trkpt>
      <trkpt lat="44.18927" lon="5.03171">
        <ele>288.13</ele>
        <time>2021-12-12T10:27:48Z</time>
      </trkpt>
      <trkpt lat="44.18915" lon="5.03176">
        <ele>285.65</ele>
        <time>2021-12-12T10:28:04Z</time>
      </trkpt>
      <trkpt lat="44.18907" lon="5.03178">
        <ele>283.19</ele>
        <time>2021-12-12T10:28:19Z</time>
      </trkpt>
      <trkpt lat="44.18905" lon="5.0318">
        <ele>282.74</ele>
        <time>2021-12-12T10:29:01Z</time>
      </trkpt>
      <trkpt lat="44.18904" lon="5.0318">
        <ele>282.8</ele>
        <time>2021-12-12T10:29:31Z</time>
      </trkpt>
      <trkpt lat="44.18904" lon="5.03182">
        <ele>282.85</ele>
        <time>2021-12-12T10:30:16Z</time>
      </trkpt>
      <trkpt lat="44.18905" lon="5.0318">
        <ele>282.99</ele>
        <time>2021-12-12T10:31:00Z</time>
      </trkpt>
      <trkpt lat="44.18906" lon="5.03179">
        <ele>283.55</ele>
        <time>2021-12-12T10:31:36Z</time>
      </trkpt>
      <trkpt lat="44.18905" lon="5.03179">
        <ele>283.65</ele>
        <time>2021-12-12T10:32:01Z</time>
      </trkpt>
      <trkpt lat="44.18906" lon="5.03182">
        <ele>284.05</ele>
        <time>2021-12-12T10:32:49Z</time>
      </trkpt>
      <trkpt lat="44.18909" lon="5.03183">
        <ele>284.32</ele>
        <time>2021-12-12T10:33:11Z</time>
      </trkpt>
      <trkpt lat="44.18909" lon="5.03186">
        <ele>284.39</ele>
        <time>2021-12-12T10:33:32Z</time>
      </trkpt>
      <trkpt lat="44.18907" lon="5.03179">
        <ele>284.05</ele>
        <time>2021-12-12T10:34:16Z</time>
      </trkpt>
      <trkpt lat="44.18909" lon="5.03184">
        <ele>284.55</ele>
        <time>2021-12-12T10:34:39Z</time>
      </trkpt>
      <trkpt lat="44.18908" lon="5.03183">
        <ele>284.2</ele>
        <time>2021-12-12T10:35:13Z</time>
      </trkpt>
      <trkpt lat="44.18913" lon="5.03193">
        <ele>283.91</ele>
        <time>2021-12-12T10:35:24Z</time>
      </trkpt>
      <trkpt lat="44.18916" lon="5.03198">
        <ele>283.63</ele>
        <time>2021-12-12T10:35:28Z</time>
      </trkpt>
      <trkpt lat="44.18921" lon="5.03213">
        <ele>283.21</ele>
        <time>2021-12-12T10:35:40Z</time>
      </trkpt>
      <trkpt lat="44.18929" lon="5.03236">
        <ele>282.41</ele>
        <time>2021-12-12T10:35:57Z</time>
      </trkpt>
      <trkpt lat="44.18937" lon="5.03253">
        <ele>281.96</ele>
        <time>2021-12-12T10:36:09Z</time>
      </trkpt>
      <trkpt lat="44.18943" lon="5.0327">
        <ele>281.83</ele>
        <time>2021-12-12T10:36:21Z</time>
      </trkpt>
      <trkpt lat="44.18945" lon="5.03273">
        <ele>281.83</ele>
        <time>2021-12-12T10:36:24Z</time>
      </trkpt>
      <trkpt lat="44.18959" lon="5.03298">
        <ele>281.99</ele>
        <time>2021-12-12T10:36:43Z</time>
      </trkpt>
      <trkpt lat="44.18963" lon="5.03312">
        <ele>281.79</ele>
        <time>2021-12-12T10:36:54Z</time>
      </trkpt>
      <trkpt lat="44.18966" lon="5.03329">
        <ele>280.82</ele>
        <time>2021-12-12T10:37:06Z</time>
      </trkpt>
      <trkpt lat="44.18969" lon="5.03353">
        <ele>280.01</ele>
        <time>2021-12-12T10:37:20Z</time>
      </trkpt>
      <trkpt lat="44.1897" lon="5.03372">
        <ele>279.44</ele>
        <time>2021-12-12T10:37:33Z</time>
      </trkpt>
      <trkpt lat="44.18972" lon="5.03396">
        <ele>278.49</ele>
        <time>2021-12-12T10:37:48Z</time>
      </trkpt>
      <trkpt lat="44.18978" lon="5.03428">
        <ele>277.02</ele>
        <time>2021-12-12T10:38:10Z</time>
      </trkpt>
      <trkpt lat="44.18988" lon="5.03455">
        <ele>275.95</ele>
        <time>2021-12-12T10:38:29Z</time>
      </trkpt>
      <trkpt lat="44.18996" lon="5.03479">
        <ele>275</ele>
        <time>2021-12-12T10:38:46Z</time>
      </trkpt>
      <trkpt lat="44.19002" lon="5.03501">
        <ele>274.42</ele>
        <time>2021-12-12T10:38:59Z</time>
      </trkpt>
      <trkpt lat="44.19009" lon="5.03521">
        <ele>273.91</ele>
        <time>2021-12-12T10:39:14Z</time>
      </trkpt>
      <trkpt lat="44.19015" lon="5.03542">
        <ele>273.65</ele>
        <time>2021-12-12T10:39:28Z</time>
      </trkpt>
      <trkpt lat="44.19017" lon="5.03546">
        <ele>273.67</ele>
        <time>2021-12-12T10:39:31Z</time>
      </trkpt>
      <trkpt lat="44.1902" lon="5.03556">
        <ele>273.84</ele>
        <time>2021-12-12T10:39:41Z</time>
      </trkpt>
      <trkpt lat="44.19024" lon="5.03574">
        <ele>274.76</ele>
        <time>2021-12-12T10:39:57Z</time>
      </trkpt>
      <trkpt lat="44.19028" lon="5.03586">
        <ele>276.16</ele>
        <time>2021-12-12T10:40:09Z</time>
      </trkpt>
      <trkpt lat="44.19029" lon="5.03606">
        <ele>277.71</ele>
        <time>2021-12-12T10:40:20Z</time>
      </trkpt>
      <trkpt lat="44.19033" lon="5.03619">
        <ele>279.21</ele>
        <time>2021-12-12T10:40:32Z</time>
      </trkpt>
      <trkpt lat="44.19036" lon="5.03632">
        <ele>280.4</ele>
        <time>2021-12-12T10:40:43Z</time>
      </trkpt>
      <trkpt lat="44.19041" lon="5.03651">
        <ele>281.6</ele>
        <time>2021-12-12T10:40:58Z</time>
      </trkpt>
      <trkpt lat="44.19045" lon="5.03674">
        <ele>282.66</ele>
        <time>2021-12-12T10:41:11Z</time>
      </trkpt>
      <trkpt lat="44.19048" lon="5.03692">
        <ele>283.84</ele>
        <time>2021-12-12T10:41:24Z</time>
      </trkpt>
      <trkpt lat="44.19048" lon="5.03706">
        <ele>285.31</ele>
        <time>2021-12-12T10:41:39Z</time>
      </trkpt>
      <trkpt lat="44.19055" lon="5.03722">
        <ele>286.48</ele>
        <time>2021-12-12T10:41:50Z</time>
      </trkpt>
      <trkpt lat="44.1906" lon="5.03728">
        <ele>287.44</ele>
        <time>2021-12-12T10:41:57Z</time>
      </trkpt>
      <trkpt lat="44.19072" lon="5.0374">
        <ele>288.79</ele>
        <time>2021-12-12T10:42:11Z</time>
      </trkpt>
      <trkpt lat="44.19083" lon="5.03748">
        <ele>290.11</ele>
        <time>2021-12-12T10:42:23Z</time>
      </trkpt>
      <trkpt lat="44.19086" lon="5.03752">
        <ele>290.37</ele>
        <time>2021-12-12T10:42:26Z</time>
      </trkpt>
      <trkpt lat="44.19098" lon="5.03763">
        <ele>291.57</ele>
        <time>2021-12-12T10:42:40Z</time>
      </trkpt>
      <trkpt lat="44.19108" lon="5.0377">
        <ele>292.25</ele>
        <time>2021-12-12T10:42:51Z</time>
      </trkpt>
      <trkpt lat="44.19114" lon="5.0378">
        <ele>293.56</ele>
        <time>2021-12-12T10:43:05Z</time>
      </trkpt>
      <trkpt lat="44.19116" lon="5.03788">
        <ele>294.25</ele>
        <time>2021-12-12T10:43:12Z</time>
      </trkpt>
      <trkpt lat="44.19114" lon="5.03805">
        <ele>295.24</ele>
        <time>2021-12-12T10:43:26Z</time>
      </trkpt>
      <trkpt lat="44.19108" lon="5.03813">
        <ele>295.3</ele>
        <time>2021-12-12T10:43:36Z</time>
      </trkpt>
      <trkpt lat="44.19096" lon="5.0382">
        <ele>295.39</ele>
        <time>2021-12-12T10:43:51Z</time>
      </trkpt>
      <trkpt lat="44.19091" lon="5.03823">
        <ele>295.64</ele>
        <time>2021-12-12T10:43:57Z</time>
      </trkpt>
      <trkpt lat="44.19083" lon="5.03827">
        <ele>295.94</ele>
        <time>2021-12-12T10:44:06Z</time>
      </trkpt>
      <trkpt lat="44.19075" lon="5.03833">
        <ele>296.39</ele>
        <time>2021-12-12T10:44:16Z</time>
      </trkpt>
      <trkpt lat="44.19061" lon="5.03843">
        <ele>297.02</ele>
        <time>2021-12-12T10:44:30Z</time>
      </trkpt>
      <trkpt lat="44.19059" lon="5.03845">
        <ele>297.2</ele>
        <time>2021-12-12T10:44:32Z</time>
      </trkpt>
      <trkpt lat="44.19049" lon="5.03854">
        <ele>297.77</ele>
        <time>2021-12-12T10:44:45Z</time>
      </trkpt>
      <trkpt lat="44.19043" lon="5.03863">
        <ele>298.61</ele>
        <time>2021-12-12T10:44:55Z</time>
      </trkpt>
      <trkpt lat="44.19038" lon="5.03877">
        <ele>299.6</ele>
        <time>2021-12-12T10:45:06Z</time>
      </trkpt>
      <trkpt lat="44.19032" lon="5.03896">
        <ele>300.23</ele>
        <time>2021-12-12T10:45:19Z</time>
      </trkpt>
      <trkpt lat="44.19025" lon="5.03905">
        <ele>300.79</ele>
        <time>2021-12-12T10:45:29Z</time>
      </trkpt>
      <trkpt lat="44.19019" lon="5.03917">
        <ele>301.57</ele>
        <time>2021-12-12T10:45:39Z</time>
      </trkpt>
      <trkpt lat="44.19014" lon="5.03919">
        <ele>301.69</ele>
        <time>2021-12-12T10:45:45Z</time>
      </trkpt>
      <trkpt lat="44.19003" lon="5.03921">
        <ele>302.59</ele>
        <time>2021-12-12T10:45:56Z</time>
      </trkpt>
      <trkpt lat="44.18996" lon="5.0392">
        <ele>303.04</ele>
        <time>2021-12-12T10:46:07Z</time>
      </trkpt>
      <trkpt lat="44.18995" lon="5.03923">
        <ele>303.69</ele>
        <time>2021-12-12T10:46:26Z</time>
      </trkpt>
      <trkpt lat="44.18996" lon="5.03932">
        <ele>304</ele>
        <time>2021-12-12T10:47:02Z</time>
      </trkpt>
      <trkpt lat="44.18998" lon="5.03927">
        <ele>303.91</ele>
        <time>2021-12-12T10:47:27Z</time>
      </trkpt>
      <trkpt lat="44.18996" lon="5.03923">
        <ele>303.98</ele>
        <time>2021-12-12T10:47:56Z</time>
      </trkpt>
      <trkpt lat="44.18994" lon="5.03924">
        <ele>304.23</ele>
        <time>2021-12-12T10:48:19Z</time>
      </trkpt>
      <trkpt lat="44.18994" lon="5.03923">
        <ele>304.28</ele>
        <time>2021-12-12T10:48:57Z</time>
      </trkpt>
      <trkpt lat="44.18989" lon="5.03931">
        <ele>304.38</ele>
        <time>2021-12-12T10:49:17Z</time>
      </trkpt>
      <trkpt lat="44.18983" lon="5.03948">
        <ele>305</ele>
        <time>2021-12-12T10:49:32Z</time>
      </trkpt>
      <trkpt lat="44.18982" lon="5.03969">
        <ele>305.59</ele>
        <time>2021-12-12T10:49:45Z</time>
      </trkpt>
      <trkpt lat="44.18983" lon="5.03986">
        <ele>306.83</ele>
        <time>2021-12-12T10:50:00Z</time>
      </trkpt>
      <trkpt lat="44.18989" lon="5.04">
        <ele>308.3</ele>
        <time>2021-12-12T10:50:12Z</time>
      </trkpt>
      <trkpt lat="44.18999" lon="5.04009">
        <ele>309.8</ele>
        <time>2021-12-12T10:50:26Z</time>
      </trkpt>
      <trkpt lat="44.19007" lon="5.04014">
        <ele>311</ele>
        <time>2021-12-12T10:50:35Z</time>
      </trkpt>
      <trkpt lat="44.19018" lon="5.0402">
        <ele>312.54</ele>
        <time>2021-12-12T10:50:48Z</time>
      </trkpt>
      <trkpt lat="44.19024" lon="5.04021">
        <ele>313.39</ele>
        <time>2021-12-12T10:50:55Z</time>
      </trkpt>
      <trkpt lat="44.19032" lon="5.04024">
        <ele>314.39</ele>
        <time>2021-12-12T10:51:05Z</time>
      </trkpt>
      <trkpt lat="44.19045" lon="5.0403">
        <ele>315.8</ele>
        <time>2021-12-12T10:51:19Z</time>
      </trkpt>
      <trkpt lat="44.19053" lon="5.04038">
        <ele>317.01</ele>
        <time>2021-12-12T10:51:31Z</time>
      </trkpt>
      <trkpt lat="44.19063" lon="5.04047">
        <ele>318.47</ele>
        <time>2021-12-12T10:51:45Z</time>
      </trkpt>
      <trkpt lat="44.19071" lon="5.04057">
        <ele>319.59</ele>
        <time>2021-12-12T10:51:57Z</time>
      </trkpt>
      <trkpt lat="44.19082" lon="5.04068">
        <ele>320.97</ele>
        <time>2021-12-12T10:52:12Z</time>
      </trkpt>
      <trkpt lat="44.1909" lon="5.04076">
        <ele>322.17</ele>
        <time>2021-12-12T10:52:22Z</time>
      </trkpt>
      <trkpt lat="44.19101" lon="5.04089">
        <ele>323.28</ele>
        <time>2021-12-12T10:52:36Z</time>
      </trkpt>
      <trkpt lat="44.19105" lon="5.041">
        <ele>324.81</ele>
        <time>2021-12-12T10:52:51Z</time>
      </trkpt>
      <trkpt lat="44.19108" lon="5.04102">
        <ele>325.59</ele>
        <time>2021-12-12T10:53:11Z</time>
      </trkpt>
      <trkpt lat="44.1911" lon="5.04101">
        <ele>325.66</ele>
        <time>2021-12-12T10:53:44Z</time>
      </trkpt>
      <trkpt lat="44.19109" lon="5.04101">
        <ele>325.66</ele>
        <time>2021-12-12T10:54:04Z</time>
      </trkpt>
      <trkpt lat="44.19109" lon="5.041">
        <ele>325.52</ele>
        <time>2021-12-12T10:54:46Z</time>
      </trkpt>
      <trkpt lat="44.19114" lon="5.04108">
        <ele>325.2</ele>
        <time>2021-12-12T10:55:02Z</time>
      </trkpt>
      <trkpt lat="44.19121" lon="5.04125">
        <ele>324.48</ele>
        <time>2021-12-12T10:55:18Z</time>
      </trkpt>
      <trkpt lat="44.19123" lon="5.04132">
        <ele>323.99</ele>
        <time>2021-12-12T10:55:22Z</time>
      </trkpt>
      <trkpt lat="44.1913" lon="5.04151">
        <ele>323.4</ele>
        <time>2021-12-12T10:55:35Z</time>
      </trkpt>
      <trkpt lat="44.19137" lon="5.04164">
        <ele>323.32</ele>
        <time>2021-12-12T10:55:49Z</time>
      </trkpt>
      <trkpt lat="44.19142" lon="5.04183">
        <ele>323.85</ele>
        <time>2021-12-12T10:56:04Z</time>
      </trkpt>
      <trkpt lat="44.19144" lon="5.04208">
        <ele>324.18</ele>
        <time>2021-12-12T10:56:20Z</time>
      </trkpt>
      <trkpt lat="44.19142" lon="5.04228">
        <ele>323.58</ele>
        <time>2021-12-12T10:56:35Z</time>
      </trkpt>
      <trkpt lat="44.19139" lon="5.04244">
        <ele>323.22</ele>
        <time>2021-12-12T10:56:47Z</time>
      </trkpt>
      <trkpt lat="44.19139" lon="5.04263">
        <ele>323.14</ele>
        <time>2021-12-12T10:57:01Z</time>
      </trkpt>
      <trkpt lat="44.19135" lon="5.04279">
        <ele>322.97</ele>
        <time>2021-12-12T10:57:11Z</time>
      </trkpt>
      <trkpt lat="44.19129" lon="5.04296">
        <ele>322.28</ele>
        <time>2021-12-12T10:57:24Z</time>
      </trkpt>
      <trkpt lat="44.19125" lon="5.04317">
        <ele>322.24</ele>
        <time>2021-12-12T10:57:34Z</time>
      </trkpt>
      <trkpt lat="44.19119" lon="5.04332">
        <ele>322.35</ele>
        <time>2021-12-12T10:57:49Z</time>
      </trkpt>
      <trkpt lat="44.19115" lon="5.04342">
        <ele>322.58</ele>
        <time>2021-12-12T10:57:56Z</time>
      </trkpt>
      <trkpt lat="44.19109" lon="5.04363">
        <ele>322.76</ele>
        <time>2021-12-12T10:58:07Z</time>
      </trkpt>
      <trkpt lat="44.19105" lon="5.04372">
        <ele>323.31</ele>
        <time>2021-12-12T10:58:17Z</time>
      </trkpt>
      <trkpt lat="44.191" lon="5.04386">
        <ele>324.09</ele>
        <time>2021-12-12T10:58:30Z</time>
      </trkpt>
      <trkpt lat="44.19094" lon="5.04404">
        <ele>324.81</ele>
        <time>2021-12-12T10:58:45Z</time>
      </trkpt>
      <trkpt lat="44.19089" lon="5.04422">
        <ele>324.96</ele>
        <time>2021-12-12T10:58:59Z</time>
      </trkpt>
      <trkpt lat="44.19088" lon="5.04438">
        <ele>325.37</ele>
        <time>2021-12-12T10:59:13Z</time>
      </trkpt>
      <trkpt lat="44.19092" lon="5.0445">
        <ele>326.11</ele>
        <time>2021-12-12T10:59:52Z</time>
      </trkpt>
      <trkpt lat="44.19093" lon="5.0446">
        <ele>326.03</ele>
        <time>2021-12-12T11:00:27Z</time>
      </trkpt>
      <trkpt lat="44.19094" lon="5.0447">
        <ele>326.42</ele>
        <time>2021-12-12T11:00:36Z</time>
      </trkpt>
      <trkpt lat="44.19095" lon="5.04484">
        <ele>326.7</ele>
        <time>2021-12-12T11:00:44Z</time>
      </trkpt>
      <trkpt lat="44.19096" lon="5.04493">
        <ele>327</ele>
        <time>2021-12-12T11:00:50Z</time>
      </trkpt>
      <trkpt lat="44.191" lon="5.0451">
        <ele>327.37</ele>
        <time>2021-12-12T11:01:02Z</time>
      </trkpt>
      <trkpt lat="44.19102" lon="5.04526">
        <ele>327.89</ele>
        <time>2021-12-12T11:01:12Z</time>
      </trkpt>
      <trkpt lat="44.19105" lon="5.04541">
        <ele>328.16</ele>
        <time>2021-12-12T11:01:24Z</time>
      </trkpt>
      <trkpt lat="44.19106" lon="5.04563">
        <ele>328.38</ele>
        <time>2021-12-12T11:01:35Z</time>
      </trkpt>
      <trkpt lat="44.19107" lon="5.04578">
        <ele>328.39</ele>
        <time>2021-12-12T11:01:47Z</time>
      </trkpt>
      <trkpt lat="44.19107" lon="5.04582">
        <ele>328.37</ele>
        <time>2021-12-12T11:01:50Z</time>
      </trkpt>
      <trkpt lat="44.19107" lon="5.046">
        <ele>328.33</ele>
        <time>2021-12-12T11:02:02Z</time>
      </trkpt>
      <trkpt lat="44.19104" lon="5.04621">
        <ele>328.53</ele>
        <time>2021-12-12T11:02:17Z</time>
      </trkpt>
      <trkpt lat="44.19101" lon="5.04639">
        <ele>328.79</ele>
        <time>2021-12-12T11:02:30Z</time>
      </trkpt>
      <trkpt lat="44.19097" lon="5.04656">
        <ele>329.39</ele>
        <time>2021-12-12T11:02:42Z</time>
      </trkpt>
      <trkpt lat="44.19094" lon="5.04668">
        <ele>329.85</ele>
        <time>2021-12-12T11:02:50Z</time>
      </trkpt>
      <trkpt lat="44.19093" lon="5.04672">
        <ele>329.91</ele>
        <time>2021-12-12T11:02:52Z</time>
      </trkpt>
      <trkpt lat="44.19088" lon="5.04681">
        <ele>329.99</ele>
        <time>2021-12-12T11:02:59Z</time>
      </trkpt>
      <trkpt lat="44.19081" lon="5.04695">
        <ele>329.95</ele>
        <time>2021-12-12T11:03:10Z</time>
      </trkpt>
      <trkpt lat="44.1907" lon="5.04712">
        <ele>329.88</ele>
        <time>2021-12-12T11:03:23Z</time>
      </trkpt>
      <trkpt lat="44.19066" lon="5.04716">
        <ele>329.9</ele>
        <time>2021-12-12T11:03:26Z</time>
      </trkpt>
      <trkpt lat="44.19057" lon="5.04728">
        <ele>330.06</ele>
        <time>2021-12-12T11:03:38Z</time>
      </trkpt>
      <trkpt lat="44.19055" lon="5.04734">
        <ele>330.13</ele>
        <time>2021-12-12T11:03:42Z</time>
      </trkpt>
      <trkpt lat="44.1905" lon="5.04747">
        <ele>330.69</ele>
        <time>2021-12-12T11:03:53Z</time>
      </trkpt>
      <trkpt lat="44.19043" lon="5.04765">
        <ele>331.82</ele>
        <time>2021-12-12T11:04:07Z</time>
      </trkpt>
      <trkpt lat="44.19044" lon="5.0478">
        <ele>333.32</ele>
        <time>2021-12-12T11:04:21Z</time>
      </trkpt>
      <trkpt lat="44.19052" lon="5.048">
        <ele>335.69</ele>
        <time>2021-12-12T11:04:39Z</time>
      </trkpt>
      <trkpt lat="44.19062" lon="5.04815">
        <ele>337.58</ele>
        <time>2021-12-12T11:04:55Z</time>
      </trkpt>
      <trkpt lat="44.19068" lon="5.04823">
        <ele>338.01</ele>
        <time>2021-12-12T11:05:03Z</time>
      </trkpt>
      <trkpt lat="44.19076" lon="5.0483">
        <ele>338.52</ele>
        <time>2021-12-12T11:05:16Z</time>
      </trkpt>
      <trkpt lat="44.19089" lon="5.04836">
        <ele>339.44</ele>
        <time>2021-12-12T11:05:32Z</time>
      </trkpt>
      <trkpt lat="44.19098" lon="5.04845">
        <ele>340.5</ele>
        <time>2021-12-12T11:05:47Z</time>
      </trkpt>
      <trkpt lat="44.19107" lon="5.04853">
        <ele>341.77</ele>
        <time>2021-12-12T11:06:01Z</time>
      </trkpt>
      <trkpt lat="44.19114" lon="5.0486">
        <ele>343.26</ele>
        <time>2021-12-12T11:06:15Z</time>
      </trkpt>
      <trkpt lat="44.19128" lon="5.04869">
        <ele>345</ele>
        <time>2021-12-12T11:06:33Z</time>
      </trkpt>
      <trkpt lat="44.19141" lon="5.04881">
        <ele>347.06</ele>
        <time>2021-12-12T11:06:51Z</time>
      </trkpt>
      <trkpt lat="44.19153" lon="5.0489">
        <ele>348.56</ele>
        <time>2021-12-12T11:07:07Z</time>
      </trkpt>
      <trkpt lat="44.19162" lon="5.04895">
        <ele>349.47</ele>
        <time>2021-12-12T11:07:18Z</time>
      </trkpt>
      <trkpt lat="44.19166" lon="5.04896">
        <ele>349.72</ele>
        <time>2021-12-12T11:07:22Z</time>
      </trkpt>
      <trkpt lat="44.19176" lon="5.04908">
        <ele>350.61</ele>
        <time>2021-12-12T11:07:35Z</time>
      </trkpt>
      <trkpt lat="44.1918" lon="5.04911">
        <ele>350.93</ele>
        <time>2021-12-12T11:07:39Z</time>
      </trkpt>
      <trkpt lat="44.19188" lon="5.04917">
        <ele>351.69</ele>
        <time>2021-12-12T11:07:50Z</time>
      </trkpt>
      <trkpt lat="44.19198" lon="5.04923">
        <ele>352.89</ele>
        <time>2021-12-12T11:08:03Z</time>
      </trkpt>
      <trkpt lat="44.19207" lon="5.04927">
        <ele>354.37</ele>
        <time>2021-12-12T11:08:16Z</time>
      </trkpt>
      <trkpt lat="44.19221" lon="5.04942">
        <ele>355.07</ele>
        <time>2021-12-12T11:08:34Z</time>
      </trkpt>
      <trkpt lat="44.19224" lon="5.04948">
        <ele>355.42</ele>
        <time>2021-12-12T11:08:39Z</time>
      </trkpt>
      <trkpt lat="44.19231" lon="5.04955">
        <ele>355.83</ele>
        <time>2021-12-12T11:08:49Z</time>
      </trkpt>
      <trkpt lat="44.19242" lon="5.04964">
        <ele>357.05</ele>
        <time>2021-12-12T11:09:03Z</time>
      </trkpt>
      <trkpt lat="44.1925" lon="5.04969">
        <ele>358.27</ele>
        <time>2021-12-12T11:09:14Z</time>
      </trkpt>
      <trkpt lat="44.19257" lon="5.04975">
        <ele>359.58</ele>
        <time>2021-12-12T11:09:24Z</time>
      </trkpt>
      <trkpt lat="44.1926" lon="5.04979">
        <ele>360.03</ele>
        <time>2021-12-12T11:09:28Z</time>
      </trkpt>
      <trkpt lat="44.19266" lon="5.04987">
        <ele>360.91</ele>
        <time>2021-12-12T11:09:36Z</time>
      </trkpt>
      <trkpt lat="44.19273" lon="5.04993">
        <ele>362.06</ele>
        <time>2021-12-12T11:09:46Z</time>
      </trkpt>
      <trkpt lat="44.19289" lon="5.0501">
        <ele>364.51</ele>
        <time>2021-12-12T11:10:08Z</time>
      </trkpt>
      <trkpt lat="44.19295" lon="5.05021">
        <ele>365.38</ele>
        <time>2021-12-12T11:10:18Z</time>
      </trkpt>
      <trkpt lat="44.19298" lon="5.05023">
        <ele>365.88</ele>
        <time>2021-12-12T11:10:22Z</time>
      </trkpt>
      <trkpt lat="44.19303" lon="5.0503">
        <ele>366.8</ele>
        <time>2021-12-12T11:10:29Z</time>
      </trkpt>
      <trkpt lat="44.19309" lon="5.05043">
        <ele>368.44</ele>
        <time>2021-12-12T11:10:42Z</time>
      </trkpt>
      <trkpt lat="44.19315" lon="5.05056">
        <ele>369.49</ele>
        <time>2021-12-12T11:10:54Z</time>
      </trkpt>
      <trkpt lat="44.19318" lon="5.0507">
        <ele>369.9</ele>
        <time>2021-12-12T11:11:07Z</time>
      </trkpt>
      <trkpt lat="44.1932" lon="5.05088">
        <ele>369.86</ele>
        <time>2021-12-12T11:11:23Z</time>
      </trkpt>
      <trkpt lat="44.19323" lon="5.05106">
        <ele>369.87</ele>
        <time>2021-12-12T11:11:37Z</time>
      </trkpt>
      <trkpt lat="44.19324" lon="5.05126">
        <ele>369.95</ele>
        <time>2021-12-12T11:11:53Z</time>
      </trkpt>
      <trkpt lat="44.19325" lon="5.05141">
        <ele>370.68</ele>
        <time>2021-12-12T11:12:08Z</time>
      </trkpt>
      <trkpt lat="44.19325" lon="5.05141">
        <ele>370.71</ele>
        <time>2021-12-12T11:12:35Z</time>
      </trkpt>
      <trkpt lat="44.19325" lon="5.05145">
        <ele>371.19</ele>
        <time>2021-12-12T11:13:13Z</time>
      </trkpt>
      <trkpt lat="44.19331" lon="5.05142">
        <ele>371.46</ele>
        <time>2021-12-12T11:14:23Z</time>
      </trkpt>
      <trkpt lat="44.19331" lon="5.05141">
        <ele>371.58</ele>
        <time>2021-12-12T11:15:27Z</time>
      </trkpt>
      <trkpt lat="44.1933" lon="5.05144">
        <ele>371.62</ele>
        <time>2021-12-12T11:16:33Z</time>
      </trkpt>
      <trkpt lat="44.19329" lon="5.05165">
        <ele>371.66</ele>
        <time>2021-12-12T11:16:49Z</time>
      </trkpt>
      <trkpt lat="44.19329" lon="5.05179">
        <ele>372.35</ele>
        <time>2021-12-12T11:17:00Z</time>
      </trkpt>
      <trkpt lat="44.1933" lon="5.05197">
        <ele>373.54</ele>
        <time>2021-12-12T11:17:14Z</time>
      </trkpt>
      <trkpt lat="44.19333" lon="5.05219">
        <ele>375.54</ele>
        <time>2021-12-12T11:17:32Z</time>
      </trkpt>
      <trkpt lat="44.19336" lon="5.05234">
        <ele>377.2</ele>
        <time>2021-12-12T11:17:45Z</time>
      </trkpt>
      <trkpt lat="44.19338" lon="5.05254">
        <ele>379.2</ele>
        <time>2021-12-12T11:18:00Z</time>
      </trkpt>
      <trkpt lat="44.19339" lon="5.05273">
        <ele>380.82</ele>
        <time>2021-12-12T11:18:14Z</time>
      </trkpt>
      <trkpt lat="44.1934" lon="5.05287">
        <ele>381.97</ele>
        <time>2021-12-12T11:18:27Z</time>
      </trkpt>
      <trkpt lat="44.19334" lon="5.05314">
        <ele>382.67</ele>
        <time>2021-12-12T11:18:46Z</time>
      </trkpt>
      <trkpt lat="44.19332" lon="5.05334">
        <ele>382.39</ele>
        <time>2021-12-12T11:19:02Z</time>
      </trkpt>
      <trkpt lat="44.19332" lon="5.05349">
        <ele>382.19</ele>
        <time>2021-12-12T11:19:13Z</time>
      </trkpt>
      <trkpt lat="44.19335" lon="5.05358">
        <ele>381.83</ele>
        <time>2021-12-12T11:19:21Z</time>
      </trkpt>
      <trkpt lat="44.19341" lon="5.05372">
        <ele>381.33</ele>
        <time>2021-12-12T11:19:34Z</time>
      </trkpt>
      <trkpt lat="44.19335" lon="5.05381">
        <ele>380.61</ele>
        <time>2021-12-12T11:19:50Z</time>
      </trkpt>
      <trkpt lat="44.19328" lon="5.05384">
        <ele>382.03</ele>
        <time>2021-12-12T11:20:04Z</time>
      </trkpt>
      <trkpt lat="44.19317" lon="5.05396">
        <ele>382.95</ele>
        <time>2021-12-12T11:20:21Z</time>
      </trkpt>
      <trkpt lat="44.19307" lon="5.05414">
        <ele>384.83</ele>
        <time>2021-12-12T11:20:41Z</time>
      </trkpt>
      <trkpt lat="44.19305" lon="5.05419">
        <ele>385.32</ele>
        <time>2021-12-12T11:20:45Z</time>
      </trkpt>
      <trkpt lat="44.193" lon="5.05427">
        <ele>385.9</ele>
        <time>2021-12-12T11:20:56Z</time>
      </trkpt>
      <trkpt lat="44.19294" lon="5.05443">
        <ele>386.62</ele>
        <time>2021-12-12T11:21:12Z</time>
      </trkpt>
      <trkpt lat="44.19282" lon="5.05459">
        <ele>387.5</ele>
        <time>2021-12-12T11:21:30Z</time>
      </trkpt>
      <trkpt lat="44.19273" lon="5.0547">
        <ele>388.09</ele>
        <time>2021-12-12T11:21:46Z</time>
      </trkpt>
      <trkpt lat="44.19262" lon="5.05478">
        <ele>387.42</ele>
        <time>2021-12-12T11:22:01Z</time>
      </trkpt>
      <trkpt lat="44.19252" lon="5.05495">
        <ele>386.85</ele>
        <time>2021-12-12T11:22:18Z</time>
      </trkpt>
      <trkpt lat="44.19242" lon="5.05504">
        <ele>387.32</ele>
        <time>2021-12-12T11:22:30Z</time>
      </trkpt>
      <trkpt lat="44.19236" lon="5.05526">
        <ele>387.97</ele>
        <time>2021-12-12T11:22:49Z</time>
      </trkpt>
      <trkpt lat="44.19227" lon="5.05541">
        <ele>387.65</ele>
        <time>2021-12-12T11:23:08Z</time>
      </trkpt>
      <trkpt lat="44.19219" lon="5.05548">
        <ele>386.08</ele>
        <time>2021-12-12T11:23:25Z</time>
      </trkpt>
      <trkpt lat="44.19219" lon="5.05562">
        <ele>386.22</ele>
        <time>2021-12-12T11:23:41Z</time>
      </trkpt>
      <trkpt lat="44.19218" lon="5.05571">
        <ele>386.04</ele>
        <time>2021-12-12T11:23:59Z</time>
      </trkpt>
      <trkpt lat="44.19221" lon="5.05578">
        <ele>385.98</ele>
        <time>2021-12-12T11:24:14Z</time>
      </trkpt>
      <trkpt lat="44.19227" lon="5.05587">
        <ele>386.13</ele>
        <time>2021-12-12T11:24:25Z</time>
      </trkpt>
      <trkpt lat="44.19237" lon="5.05594">
        <ele>387.7</ele>
        <time>2021-12-12T11:24:39Z</time>
      </trkpt>
      <trkpt lat="44.19247" lon="5.05605">
        <ele>390.75</ele>
        <time>2021-12-12T11:24:57Z</time>
      </trkpt>
      <trkpt lat="44.19255" lon="5.0561">
        <ele>393.43</ele>
        <time>2021-12-12T11:25:19Z</time>
      </trkpt>
      <trkpt lat="44.19261" lon="5.05613">
        <ele>394.17</ele>
        <time>2021-12-12T11:25:44Z</time>
      </trkpt>
      <trkpt lat="44.19259" lon="5.0561">
        <ele>393.62</ele>
        <time>2021-12-12T11:26:02Z</time>
      </trkpt>
      <trkpt lat="44.19257" lon="5.05612">
        <ele>393.48</ele>
        <time>2021-12-12T11:27:19Z</time>
      </trkpt>
      <trkpt lat="44.19251" lon="5.0561">
        <ele>394.16</ele>
        <time>2021-12-12T11:28:57Z</time>
      </trkpt>
      <trkpt lat="44.19252" lon="5.0562">
        <ele>394.39</ele>
        <time>2021-12-12T11:29:41Z</time>
      </trkpt>
      <trkpt lat="44.19245" lon="5.05615">
        <ele>394.73</ele>
        <time>2021-12-12T11:30:57Z</time>
      </trkpt>
      <trkpt lat="44.19246" lon="5.0561">
        <ele>396</ele>
        <time>2021-12-12T11:32:35Z</time>
      </trkpt>
      <trkpt lat="44.19248" lon="5.05612">
        <ele>396.73</ele>
        <time>2021-12-12T11:34:10Z</time>
      </trkpt>
      <trkpt lat="44.19248" lon="5.05615">
        <ele>397.55</ele>
        <time>2021-12-12T11:35:37Z</time>
      </trkpt>
      <trkpt lat="44.19244" lon="5.05616">
        <ele>398.79</ele>
        <time>2021-12-12T11:37:06Z</time>
      </trkpt>
      <trkpt lat="44.19241" lon="5.05615">
        <ele>400.1</ele>
        <time>2021-12-12T11:38:25Z</time>
      </trkpt>
      <trkpt lat="44.19247" lon="5.05614">
        <ele>401.61</ele>
        <time>2021-12-12T11:40:25Z</time>
      </trkpt>
      <trkpt lat="44.19247" lon="5.05619">
        <ele>402.5</ele>
        <time>2021-12-12T11:41:26Z</time>
      </trkpt>
      <trkpt lat="44.19248" lon="5.05613">
        <ele>403.88</ele>
        <time>2021-12-12T11:44:17Z</time>
      </trkpt>
      <trkpt lat="44.19249" lon="5.05614">
        <ele>404.83</ele>
        <time>2021-12-12T11:46:01Z</time>
      </trkpt>
      <trkpt lat="44.1925" lon="5.05617">
        <ele>404.98</ele>
        <time>2021-12-12T11:47:31Z</time>
      </trkpt>
      <trkpt lat="44.1925" lon="5.05619">
        <ele>405.9</ele>
        <time>2021-12-12T11:49:18Z</time>
      </trkpt>
      <trkpt lat="44.19252" lon="5.0561">
        <ele>406.46</ele>
        <time>2021-12-12T11:50:07Z</time>
      </trkpt>
      <trkpt lat="44.19248" lon="5.05614">
        <ele>406.93</ele>
        <time>2021-12-12T11:51:35Z</time>
      </trkpt>
      <trkpt lat="44.19249" lon="5.05623">
        <ele>407.07</ele>
        <time>2021-12-12T11:52:39Z</time>
      </trkpt>
      <trkpt lat="44.19246" lon="5.05615">
        <ele>407.38</ele>
        <time>2021-12-12T11:53:31Z</time>
      </trkpt>
      <trkpt lat="44.19248" lon="5.0561">
        <ele>407.65</ele>
        <time>2021-12-12T11:54:16Z</time>
      </trkpt>
      <trkpt lat="44.19253" lon="5.0561">
        <ele>407.93</ele>
        <time>2021-12-12T11:55:23Z</time>
      </trkpt>
      <trkpt lat="44.19261" lon="5.05609">
        <ele>407.96</ele>
        <time>2021-12-12T11:56:03Z</time>
      </trkpt>
      <trkpt lat="44.1925" lon="5.05602">
        <ele>407.7</ele>
        <time>2021-12-12T11:56:54Z</time>
      </trkpt>
      <trkpt lat="44.19251" lon="5.0561">
        <ele>407.9</ele>
        <time>2021-12-12T11:57:42Z</time>
      </trkpt>
      <trkpt lat="44.19259" lon="5.05614">
        <ele>408.14</ele>
        <time>2021-12-12T11:58:21Z</time>
      </trkpt>
      <trkpt lat="44.19247" lon="5.0561">
        <ele>408.43</ele>
        <time>2021-12-12T11:59:08Z</time>
      </trkpt>
      <trkpt lat="44.19249" lon="5.0561">
        <ele>408.41</ele>
        <time>2021-12-12T11:59:50Z</time>
      </trkpt>
      <trkpt lat="44.19252" lon="5.05608">
        <ele>408.34</ele>
        <time>2021-12-12T12:00:36Z</time>
      </trkpt>
      <trkpt lat="44.19252" lon="5.05609">
        <ele>408.07</ele>
        <time>2021-12-12T12:01:13Z</time>
      </trkpt>
      <trkpt lat="44.19251" lon="5.05618">
        <ele>408.04</ele>
        <time>2021-12-12T12:02:04Z</time>
      </trkpt>
      <trkpt lat="44.19254" lon="5.05613">
        <ele>408.17</ele>
        <time>2021-12-12T12:03:04Z</time>
      </trkpt>
      <trkpt lat="44.19256" lon="5.05609">
        <ele>408.37</ele>
        <time>2021-12-12T12:03:55Z</time>
      </trkpt>
      <trkpt lat="44.19254" lon="5.05605">
        <ele>408.28</ele>
        <time>2021-12-12T12:04:56Z</time>
      </trkpt>
      <trkpt lat="44.19253" lon="5.05613">
        <ele>407.96</ele>
        <time>2021-12-12T12:06:02Z</time>
      </trkpt>
      <trkpt lat="44.19251" lon="5.05609">
        <ele>407.59</ele>
        <time>2021-12-12T12:07:01Z</time>
      </trkpt>
      <trkpt lat="44.19251" lon="5.05607">
        <ele>407.37</ele>
        <time>2021-12-12T12:07:46Z</time>
      </trkpt>
      <trkpt lat="44.19255" lon="5.05606">
        <ele>406.97</ele>
        <time>2021-12-12T12:08:37Z</time>
      </trkpt>
      <trkpt lat="44.19253" lon="5.05601">
        <ele>406.87</ele>
        <time>2021-12-12T12:09:22Z</time>
      </trkpt>
      <trkpt lat="44.19246" lon="5.05605">
        <ele>406.6</ele>
        <time>2021-12-12T12:10:06Z</time>
      </trkpt>
      <trkpt lat="44.1925" lon="5.05607">
        <ele>405.86</ele>
        <time>2021-12-12T12:10:58Z</time>
      </trkpt>
      <trkpt lat="44.19252" lon="5.05604">
        <ele>405.83</ele>
        <time>2021-12-12T12:11:46Z</time>
      </trkpt>
      <trkpt lat="44.19254" lon="5.05604">
        <ele>405.66</ele>
        <time>2021-12-12T12:12:32Z</time>
      </trkpt>
      <trkpt lat="44.19259" lon="5.05612">
        <ele>405.61</ele>
        <time>2021-12-12T12:13:41Z</time>
      </trkpt>
      <trkpt lat="44.19261" lon="5.05601">
        <ele>405.85</ele>
        <time>2021-12-12T12:14:26Z</time>
      </trkpt>
      <trkpt lat="44.19255" lon="5.0561">
        <ele>406.98</ele>
        <time>2021-12-12T12:15:05Z</time>
      </trkpt>
      <trkpt lat="44.19255" lon="5.05615">
        <ele>407.29</ele>
        <time>2021-12-12T12:15:44Z</time>
      </trkpt>
      <trkpt lat="44.19251" lon="5.05613">
        <ele>407.54</ele>
        <time>2021-12-12T12:16:21Z</time>
      </trkpt>
      <trkpt lat="44.19253" lon="5.05603">
        <ele>407.22</ele>
        <time>2021-12-12T12:17:01Z</time>
      </trkpt>
      <trkpt lat="44.19256" lon="5.05613">
        <ele>407.49</ele>
        <time>2021-12-12T12:17:19Z</time>
      </trkpt>
      <trkpt lat="44.19249" lon="5.05624">
        <ele>406.26</ele>
        <time>2021-12-12T12:17:56Z</time>
      </trkpt>
      <trkpt lat="44.19248" lon="5.05632">
        <ele>404.89</ele>
        <time>2021-12-12T12:18:27Z</time>
      </trkpt>
      <trkpt lat="44.19242" lon="5.05651">
        <ele>403.58</ele>
        <time>2021-12-12T12:18:48Z</time>
      </trkpt>
      <trkpt lat="44.1924" lon="5.05668">
        <ele>403.31</ele>
        <time>2021-12-12T12:19:04Z</time>
      </trkpt>
      <trkpt lat="44.19242" lon="5.05669">
        <ele>402.61</ele>
        <time>2021-12-12T12:19:22Z</time>
      </trkpt>
      <trkpt lat="44.1924" lon="5.05672">
        <ele>402.59</ele>
        <time>2021-12-12T12:19:50Z</time>
      </trkpt>
      <trkpt lat="44.19233" lon="5.05683">
        <ele>402.51</ele>
        <time>2021-12-12T12:20:34Z</time>
      </trkpt>
      <trkpt lat="44.19234" lon="5.05682">
        <ele>402.51</ele>
        <time>2021-12-12T12:20:37Z</time>
      </trkpt>
      <trkpt lat="44.19241" lon="5.05667">
        <ele>402.87</ele>
        <time>2021-12-12T12:21:10Z</time>
      </trkpt>
      <trkpt lat="44.19237" lon="5.05654">
        <ele>402.62</ele>
        <time>2021-12-12T12:21:20Z</time>
      </trkpt>
      <trkpt lat="44.19232" lon="5.05641">
        <ele>402.45</ele>
        <time>2021-12-12T12:21:34Z</time>
      </trkpt>
      <trkpt lat="44.19229" lon="5.05628">
        <ele>401.23</ele>
        <time>2021-12-12T12:21:49Z</time>
      </trkpt>
      <trkpt lat="44.19224" lon="5.0562">
        <ele>400.93</ele>
        <time>2021-12-12T12:22:03Z</time>
      </trkpt>
      <trkpt lat="44.19219" lon="5.05609">
        <ele>400.65</ele>
        <time>2021-12-12T12:22:17Z</time>
      </trkpt>
      <trkpt lat="44.19215" lon="5.05599">
        <ele>399.47</ele>
        <time>2021-12-12T12:22:31Z</time>
      </trkpt>
      <trkpt lat="44.19216" lon="5.05604">
        <ele>399.19</ele>
        <time>2021-12-12T12:23:01Z</time>
      </trkpt>
      <trkpt lat="44.19216" lon="5.05591">
        <ele>399.41</ele>
        <time>2021-12-12T12:23:47Z</time>
      </trkpt>
      <trkpt lat="44.19221" lon="5.05581">
        <ele>399.42</ele>
        <time>2021-12-12T12:24:00Z</time>
      </trkpt>
      <trkpt lat="44.19224" lon="5.05567">
        <ele>400.42</ele>
        <time>2021-12-12T12:24:18Z</time>
      </trkpt>
      <trkpt lat="44.19218" lon="5.05561">
        <ele>400.62</ele>
        <time>2021-12-12T12:25:01Z</time>
      </trkpt>
      <trkpt lat="44.19221" lon="5.05547">
        <ele>400.81</ele>
        <time>2021-12-12T12:25:38Z</time>
      </trkpt>
      <trkpt lat="44.19223" lon="5.05538">
        <ele>401.18</ele>
        <time>2021-12-12T12:25:55Z</time>
      </trkpt>
      <trkpt lat="44.19227" lon="5.05536">
        <ele>400.89</ele>
        <time>2021-12-12T12:26:21Z</time>
      </trkpt>
      <trkpt lat="44.19241" lon="5.05524">
        <ele>403.24</ele>
        <time>2021-12-12T12:26:42Z</time>
      </trkpt>
      <trkpt lat="44.19243" lon="5.05516">
        <ele>403.3</ele>
        <time>2021-12-12T12:26:48Z</time>
      </trkpt>
      <trkpt lat="44.19244" lon="5.05513">
        <ele>403.3</ele>
        <time>2021-12-12T12:26:50Z</time>
      </trkpt>
      <trkpt lat="44.19253" lon="5.05505">
        <ele>402.97</ele>
        <time>2021-12-12T12:26:59Z</time>
      </trkpt>
      <trkpt lat="44.19255" lon="5.05502">
        <ele>402.91</ele>
        <time>2021-12-12T12:27:02Z</time>
      </trkpt>
      <trkpt lat="44.19256" lon="5.05499">
        <ele>402.85</ele>
        <time>2021-12-12T12:27:05Z</time>
      </trkpt>
      <trkpt lat="44.1926" lon="5.05487">
        <ele>402.7</ele>
        <time>2021-12-12T12:27:13Z</time>
      </trkpt>
      <trkpt lat="44.19262" lon="5.05482">
        <ele>402.37</ele>
        <time>2021-12-12T12:27:17Z</time>
      </trkpt>
      <trkpt lat="44.19262" lon="5.05479">
        <ele>402.22</ele>
        <time>2021-12-12T12:27:19Z</time>
      </trkpt>
      <trkpt lat="44.19271" lon="5.05473">
        <ele>402.16</ele>
        <time>2021-12-12T12:27:31Z</time>
      </trkpt>
      <trkpt lat="44.19284" lon="5.05458">
        <ele>403.53</ele>
        <time>2021-12-12T12:27:51Z</time>
      </trkpt>
      <trkpt lat="44.19292" lon="5.05442">
        <ele>402.93</ele>
        <time>2021-12-12T12:28:10Z</time>
      </trkpt>
      <trkpt lat="44.193" lon="5.05424">
        <ele>402.36</ele>
        <time>2021-12-12T12:28:30Z</time>
      </trkpt>
      <trkpt lat="44.19306" lon="5.05407">
        <ele>401.63</ele>
        <time>2021-12-12T12:28:46Z</time>
      </trkpt>
      <trkpt lat="44.19307" lon="5.05405">
        <ele>401.51</ele>
        <time>2021-12-12T12:28:48Z</time>
      </trkpt>
      <trkpt lat="44.19312" lon="5.05393">
        <ele>400.71</ele>
        <time>2021-12-12T12:29:00Z</time>
      </trkpt>
      <trkpt lat="44.19317" lon="5.05384">
        <ele>399.57</ele>
        <time>2021-12-12T12:29:10Z</time>
      </trkpt>
      <trkpt lat="44.19328" lon="5.05375">
        <ele>398.77</ele>
        <time>2021-12-12T12:29:24Z</time>
      </trkpt>
      <trkpt lat="44.19332" lon="5.05373">
        <ele>398.41</ele>
        <time>2021-12-12T12:29:36Z</time>
      </trkpt>
      <trkpt lat="44.19334" lon="5.05374">
        <ele>397.87</ele>
        <time>2021-12-12T12:29:41Z</time>
      </trkpt>
      <trkpt lat="44.19338" lon="5.05375">
        <ele>397.53</ele>
        <time>2021-12-12T12:29:45Z</time>
      </trkpt>
      <trkpt lat="44.19332" lon="5.05355">
        <ele>397.71</ele>
        <time>2021-12-12T12:30:04Z</time>
      </trkpt>
      <trkpt lat="44.19332" lon="5.05337">
        <ele>398.18</ele>
        <time>2021-12-12T12:30:19Z</time>
      </trkpt>
      <trkpt lat="44.19332" lon="5.05336">
        <ele>398.22</ele>
        <time>2021-12-12T12:30:20Z</time>
      </trkpt>
      <trkpt lat="44.19333" lon="5.05326">
        <ele>398.44</ele>
        <time>2021-12-12T12:30:27Z</time>
      </trkpt>
      <trkpt lat="44.19335" lon="5.05312">
        <ele>398.78</ele>
        <time>2021-12-12T12:30:38Z</time>
      </trkpt>
      <trkpt lat="44.19335" lon="5.0531">
        <ele>398.79</ele>
        <time>2021-12-12T12:30:39Z</time>
      </trkpt>
      <trkpt lat="44.19339" lon="5.05294">
        <ele>399.12</ele>
        <time>2021-12-12T12:30:53Z</time>
      </trkpt>
      <trkpt lat="44.19338" lon="5.05291">
        <ele>399.15</ele>
        <time>2021-12-12T12:30:55Z</time>
      </trkpt>
      <trkpt lat="44.19338" lon="5.05276">
        <ele>398.9</ele>
        <time>2021-12-12T12:31:07Z</time>
      </trkpt>
      <trkpt lat="44.19337" lon="5.05254">
        <ele>397.85</ele>
        <time>2021-12-12T12:31:22Z</time>
      </trkpt>
      <trkpt lat="44.19334" lon="5.05234">
        <ele>395.94</ele>
        <time>2021-12-12T12:31:39Z</time>
      </trkpt>
      <trkpt lat="44.19332" lon="5.05218">
        <ele>393.78</ele>
        <time>2021-12-12T12:31:53Z</time>
      </trkpt>
      <trkpt lat="44.1933" lon="5.05202">
        <ele>392.08</ele>
        <time>2021-12-12T12:32:06Z</time>
      </trkpt>
      <trkpt lat="44.1933" lon="5.05193">
        <ele>390.99</ele>
        <time>2021-12-12T12:32:15Z</time>
      </trkpt>
      <trkpt lat="44.19327" lon="5.05185">
        <ele>390.74</ele>
        <time>2021-12-12T12:32:18Z</time>
      </trkpt>
      <trkpt lat="44.19327" lon="5.05164">
        <ele>389.49</ele>
        <time>2021-12-12T12:32:32Z</time>
      </trkpt>
      <trkpt lat="44.19327" lon="5.05151">
        <ele>388.53</ele>
        <time>2021-12-12T12:32:41Z</time>
      </trkpt>
      <trkpt lat="44.19326" lon="5.05147">
        <ele>388.39</ele>
        <time>2021-12-12T12:32:44Z</time>
      </trkpt>
      <trkpt lat="44.19325" lon="5.05132">
        <ele>387.89</ele>
        <time>2021-12-12T12:32:55Z</time>
      </trkpt>
      <trkpt lat="44.19324" lon="5.05113">
        <ele>387.36</ele>
        <time>2021-12-12T12:33:08Z</time>
      </trkpt>
      <trkpt lat="44.19322" lon="5.05089">
        <ele>387</ele>
        <time>2021-12-12T12:33:26Z</time>
      </trkpt>
      <trkpt lat="44.19319" lon="5.05075">
        <ele>386.79</ele>
        <time>2021-12-12T12:33:45Z</time>
      </trkpt>
      <trkpt lat="44.19312" lon="5.05052">
        <ele>386.83</ele>
        <time>2021-12-12T12:34:02Z</time>
      </trkpt>
      <trkpt lat="44.1931" lon="5.05044">
        <ele>386.94</ele>
        <time>2021-12-12T12:34:30Z</time>
      </trkpt>
      <trkpt lat="44.19307" lon="5.05041">
        <ele>386.92</ele>
        <time>2021-12-12T12:35:07Z</time>
      </trkpt>
      <trkpt lat="44.19297" lon="5.0503">
        <ele>386.16</ele>
        <time>2021-12-12T12:35:22Z</time>
      </trkpt>
      <trkpt lat="44.19289" lon="5.05017">
        <ele>384.9</ele>
        <time>2021-12-12T12:35:35Z</time>
      </trkpt>
      <trkpt lat="44.19281" lon="5.05005">
        <ele>382.11</ele>
        <time>2021-12-12T12:35:54Z</time>
      </trkpt>
      <trkpt lat="44.19273" lon="5.05002">
        <ele>381.15</ele>
        <time>2021-12-12T12:36:15Z</time>
      </trkpt>
      <trkpt lat="44.19261" lon="5.04993">
        <ele>379.49</ele>
        <time>2021-12-12T12:36:32Z</time>
      </trkpt>
      <trkpt lat="44.19246" lon="5.04978">
        <ele>377.12</ele>
        <time>2021-12-12T12:36:52Z</time>
      </trkpt>
      <trkpt lat="44.19234" lon="5.04964">
        <ele>374.7</ele>
        <time>2021-12-12T12:37:09Z</time>
      </trkpt>
      <trkpt lat="44.19219" lon="5.04951">
        <ele>372.54</ele>
        <time>2021-12-12T12:37:27Z</time>
      </trkpt>
      <trkpt lat="44.19206" lon="5.04939">
        <ele>371.2</ele>
        <time>2021-12-12T12:37:44Z</time>
      </trkpt>
      <trkpt lat="44.19189" lon="5.04923">
        <ele>369.44</ele>
        <time>2021-12-12T12:38:03Z</time>
      </trkpt>
      <trkpt lat="44.19175" lon="5.0491">
        <ele>367.22</ele>
        <time>2021-12-12T12:38:19Z</time>
      </trkpt>
      <trkpt lat="44.19161" lon="5.04898">
        <ele>365.79</ele>
        <time>2021-12-12T12:38:35Z</time>
      </trkpt>
      <trkpt lat="44.19144" lon="5.04887">
        <ele>363.56</ele>
        <time>2021-12-12T12:38:55Z</time>
      </trkpt>
      <trkpt lat="44.1913" lon="5.04873">
        <ele>361.53</ele>
        <time>2021-12-12T12:39:13Z</time>
      </trkpt>
      <trkpt lat="44.19115" lon="5.04862">
        <ele>359.45</ele>
        <time>2021-12-12T12:39:30Z</time>
      </trkpt>
      <trkpt lat="44.19099" lon="5.04851">
        <ele>356.73</ele>
        <time>2021-12-12T12:39:48Z</time>
      </trkpt>
      <trkpt lat="44.19087" lon="5.04838">
        <ele>354.24</ele>
        <time>2021-12-12T12:40:04Z</time>
      </trkpt>
      <trkpt lat="44.19072" lon="5.04827">
        <ele>352.14</ele>
        <time>2021-12-12T12:40:22Z</time>
      </trkpt>
      <trkpt lat="44.19057" lon="5.04816">
        <ele>350.65</ele>
        <time>2021-12-12T12:40:38Z</time>
      </trkpt>
      <trkpt lat="44.19049" lon="5.04804">
        <ele>349.36</ele>
        <time>2021-12-12T12:40:54Z</time>
      </trkpt>
      <trkpt lat="44.19044" lon="5.04792">
        <ele>347.82</ele>
        <time>2021-12-12T12:41:07Z</time>
      </trkpt>
      <trkpt lat="44.19042" lon="5.04767">
        <ele>345.4</ele>
        <time>2021-12-12T12:41:23Z</time>
      </trkpt>
      <trkpt lat="44.19043" lon="5.04766">
        <ele>345.25</ele>
        <time>2021-12-12T12:41:24Z</time>
      </trkpt>
      <trkpt lat="44.19046" lon="5.0476">
        <ele>344.89</ele>
        <time>2021-12-12T12:41:28Z</time>
      </trkpt>
      <trkpt lat="44.19048" lon="5.04753">
        <ele>344.39</ele>
        <time>2021-12-12T12:41:33Z</time>
      </trkpt>
      <trkpt lat="44.1905" lon="5.04743">
        <ele>343.64</ele>
        <time>2021-12-12T12:41:40Z</time>
      </trkpt>
      <trkpt lat="44.19056" lon="5.04729">
        <ele>342.63</ele>
        <time>2021-12-12T12:41:50Z</time>
      </trkpt>
      <trkpt lat="44.1906" lon="5.04723">
        <ele>342.32</ele>
        <time>2021-12-12T12:41:55Z</time>
      </trkpt>
      <trkpt lat="44.19065" lon="5.04714">
        <ele>342</ele>
        <time>2021-12-12T12:42:03Z</time>
      </trkpt>
      <trkpt lat="44.19069" lon="5.0471">
        <ele>341.82</ele>
        <time>2021-12-12T12:42:07Z</time>
      </trkpt>
      <trkpt lat="44.19072" lon="5.04705">
        <ele>341.7</ele>
        <time>2021-12-12T12:42:11Z</time>
      </trkpt>
      <trkpt lat="44.19078" lon="5.04693">
        <ele>341.41</ele>
        <time>2021-12-12T12:42:21Z</time>
      </trkpt>
      <trkpt lat="44.19084" lon="5.04679">
        <ele>341.2</ele>
        <time>2021-12-12T12:42:31Z</time>
      </trkpt>
      <trkpt lat="44.19092" lon="5.04658">
        <ele>341.17</ele>
        <time>2021-12-12T12:42:46Z</time>
      </trkpt>
      <trkpt lat="44.19095" lon="5.04646">
        <ele>341.12</ele>
        <time>2021-12-12T12:42:55Z</time>
      </trkpt>
      <trkpt lat="44.19096" lon="5.04627">
        <ele>340.73</ele>
        <time>2021-12-12T12:43:05Z</time>
      </trkpt>
      <trkpt lat="44.19097" lon="5.04616">
        <ele>340.29</ele>
        <time>2021-12-12T12:43:12Z</time>
      </trkpt>
      <trkpt lat="44.19098" lon="5.04605">
        <ele>339.87</ele>
        <time>2021-12-12T12:43:21Z</time>
      </trkpt>
      <trkpt lat="44.19098" lon="5.04601">
        <ele>339.82</ele>
        <time>2021-12-12T12:43:24Z</time>
      </trkpt>
      <trkpt lat="44.19098" lon="5.04585">
        <ele>339.52</ele>
        <time>2021-12-12T12:43:35Z</time>
      </trkpt>
      <trkpt lat="44.19098" lon="5.04577">
        <ele>339.47</ele>
        <time>2021-12-12T12:43:40Z</time>
      </trkpt>
      <trkpt lat="44.19097" lon="5.04556">
        <ele>339.5</ele>
        <time>2021-12-12T12:43:52Z</time>
      </trkpt>
      <trkpt lat="44.19097" lon="5.04554">
        <ele>339.51</ele>
        <time>2021-12-12T12:43:53Z</time>
      </trkpt>
      <trkpt lat="44.19097" lon="5.04546">
        <ele>339.51</ele>
        <time>2021-12-12T12:43:58Z</time>
      </trkpt>
      <trkpt lat="44.19094" lon="5.04528">
        <ele>339.25</ele>
        <time>2021-12-12T12:44:10Z</time>
      </trkpt>
      <trkpt lat="44.19095" lon="5.04522">
        <ele>339.15</ele>
        <time>2021-12-12T12:44:14Z</time>
      </trkpt>
      <trkpt lat="44.19092" lon="5.04502">
        <ele>338.89</ele>
        <time>2021-12-12T12:44:32Z</time>
      </trkpt>
      <trkpt lat="44.19089" lon="5.04482">
        <ele>338.37</ele>
        <time>2021-12-12T12:44:47Z</time>
      </trkpt>
      <trkpt lat="44.19088" lon="5.04476">
        <ele>338.14</ele>
        <time>2021-12-12T12:44:51Z</time>
      </trkpt>
      <trkpt lat="44.19086" lon="5.04462">
        <ele>337.94</ele>
        <time>2021-12-12T12:45:03Z</time>
      </trkpt>
      <trkpt lat="44.19086" lon="5.04442">
        <ele>337.35</ele>
        <time>2021-12-12T12:45:18Z</time>
      </trkpt>
      <trkpt lat="44.19086" lon="5.0444">
        <ele>337.31</ele>
        <time>2021-12-12T12:45:19Z</time>
      </trkpt>
      <trkpt lat="44.19088" lon="5.04422">
        <ele>336.31</ele>
        <time>2021-12-12T12:45:33Z</time>
      </trkpt>
      <trkpt lat="44.19093" lon="5.04404">
        <ele>335.97</ele>
        <time>2021-12-12T12:45:45Z</time>
      </trkpt>
      <trkpt lat="44.19097" lon="5.04393">
        <ele>335.93</ele>
        <time>2021-12-12T12:45:54Z</time>
      </trkpt>
      <trkpt lat="44.191" lon="5.04383">
        <ele>335.78</ele>
        <time>2021-12-12T12:46:01Z</time>
      </trkpt>
      <trkpt lat="44.19104" lon="5.04368">
        <ele>335.35</ele>
        <time>2021-12-12T12:46:11Z</time>
      </trkpt>
      <trkpt lat="44.19108" lon="5.04356">
        <ele>334.7</ele>
        <time>2021-12-12T12:46:21Z</time>
      </trkpt>
      <trkpt lat="44.19112" lon="5.04341">
        <ele>333.94</ele>
        <time>2021-12-12T12:46:31Z</time>
      </trkpt>
      <trkpt lat="44.19114" lon="5.04336">
        <ele>333.65</ele>
        <time>2021-12-12T12:46:35Z</time>
      </trkpt>
      <trkpt lat="44.19119" lon="5.04321">
        <ele>333.44</ele>
        <time>2021-12-12T12:46:45Z</time>
      </trkpt>
      <trkpt lat="44.19125" lon="5.04307">
        <ele>333.18</ele>
        <time>2021-12-12T12:46:55Z</time>
      </trkpt>
      <trkpt lat="44.19129" lon="5.04294">
        <ele>332.98</ele>
        <time>2021-12-12T12:47:07Z</time>
      </trkpt>
      <trkpt lat="44.19137" lon="5.04267">
        <ele>332.9</ele>
        <time>2021-12-12T12:47:24Z</time>
      </trkpt>
      <trkpt lat="44.19139" lon="5.04249">
        <ele>333.42</ele>
        <time>2021-12-12T12:47:35Z</time>
      </trkpt>
      <trkpt lat="44.1914" lon="5.04233">
        <ele>333.43</ele>
        <time>2021-12-12T12:47:47Z</time>
      </trkpt>
      <trkpt lat="44.1914" lon="5.04206">
        <ele>333.58</ele>
        <time>2021-12-12T12:48:05Z</time>
      </trkpt>
      <trkpt lat="44.1914" lon="5.04192">
        <ele>334.5</ele>
        <time>2021-12-12T12:48:16Z</time>
      </trkpt>
      <trkpt lat="44.19137" lon="5.04178">
        <ele>334.64</ele>
        <time>2021-12-12T12:48:27Z</time>
      </trkpt>
      <trkpt lat="44.19134" lon="5.04169">
        <ele>334.31</ele>
        <time>2021-12-12T12:48:35Z</time>
      </trkpt>
      <trkpt lat="44.19128" lon="5.0415">
        <ele>333.48</ele>
        <time>2021-12-12T12:48:48Z</time>
      </trkpt>
      <trkpt lat="44.19123" lon="5.04137">
        <ele>333.45</ele>
        <time>2021-12-12T12:48:59Z</time>
      </trkpt>
      <trkpt lat="44.19114" lon="5.04121">
        <ele>333.61</ele>
        <time>2021-12-12T12:49:13Z</time>
      </trkpt>
      <trkpt lat="44.19106" lon="5.04106">
        <ele>335.23</ele>
        <time>2021-12-12T12:49:32Z</time>
      </trkpt>
      <trkpt lat="44.19104" lon="5.04098">
        <ele>335.63</ele>
        <time>2021-12-12T12:49:45Z</time>
      </trkpt>
      <trkpt lat="44.19104" lon="5.04098">
        <ele>335.56</ele>
        <time>2021-12-12T12:50:25Z</time>
      </trkpt>
      <trkpt lat="44.19103" lon="5.04098">
        <ele>335.53</ele>
        <time>2021-12-12T12:50:47Z</time>
      </trkpt>
      <trkpt lat="44.19104" lon="5.04097">
        <ele>335.53</ele>
        <time>2021-12-12T12:50:59Z</time>
      </trkpt>
      <trkpt lat="44.19104" lon="5.04097">
        <ele>335.41</ele>
        <time>2021-12-12T12:51:34Z</time>
      </trkpt>
      <trkpt lat="44.19106" lon="5.04096">
        <ele>335.08</ele>
        <time>2021-12-12T12:52:36Z</time>
      </trkpt>
      <trkpt lat="44.19104" lon="5.04095">
        <ele>334.89</ele>
        <time>2021-12-12T12:53:18Z</time>
      </trkpt>
      <trkpt lat="44.19101" lon="5.0409">
        <ele>334.7</ele>
        <time>2021-12-12T12:53:30Z</time>
      </trkpt>
      <trkpt lat="44.19097" lon="5.04083">
        <ele>334.08</ele>
        <time>2021-12-12T12:53:49Z</time>
      </trkpt>
      <trkpt lat="44.19081" lon="5.0407">
        <ele>332.46</ele>
        <time>2021-12-12T12:54:10Z</time>
      </trkpt>
      <trkpt lat="44.19078" lon="5.04067">
        <ele>332.24</ele>
        <time>2021-12-12T12:54:14Z</time>
      </trkpt>
      <trkpt lat="44.19061" lon="5.04053">
        <ele>330.07</ele>
        <time>2021-12-12T12:54:35Z</time>
      </trkpt>
      <trkpt lat="44.1905" lon="5.04041">
        <ele>328.48</ele>
        <time>2021-12-12T12:54:49Z</time>
      </trkpt>
      <trkpt lat="44.19036" lon="5.04028">
        <ele>326.34</ele>
        <time>2021-12-12T12:55:06Z</time>
      </trkpt>
      <trkpt lat="44.19032" lon="5.04024">
        <ele>325.13</ele>
        <time>2021-12-12T12:55:20Z</time>
      </trkpt>
      <trkpt lat="44.19029" lon="5.04023">
        <ele>324.54</ele>
        <time>2021-12-12T12:55:52Z</time>
      </trkpt>
      <trkpt lat="44.19023" lon="5.04023">
        <ele>324.21</ele>
        <time>2021-12-12T12:56:23Z</time>
      </trkpt>
      <trkpt lat="44.19014" lon="5.0402">
        <ele>323.56</ele>
        <time>2021-12-12T12:56:37Z</time>
      </trkpt>
      <trkpt lat="44.18999" lon="5.04014">
        <ele>321.47</ele>
        <time>2021-12-12T12:56:56Z</time>
      </trkpt>
      <trkpt lat="44.18988" lon="5.04004">
        <ele>319.24</ele>
        <time>2021-12-12T12:57:11Z</time>
      </trkpt>
      <trkpt lat="44.1898" lon="5.03999">
        <ele>317.82</ele>
        <time>2021-12-12T12:57:21Z</time>
      </trkpt>
      <trkpt lat="44.1898" lon="5.03979">
        <ele>315.78</ele>
        <time>2021-12-12T12:57:34Z</time>
      </trkpt>
      <trkpt lat="44.18981" lon="5.03972">
        <ele>315.15</ele>
        <time>2021-12-12T12:57:39Z</time>
      </trkpt>
      <trkpt lat="44.18981" lon="5.03955">
        <ele>313.59</ele>
        <time>2021-12-12T12:57:51Z</time>
      </trkpt>
      <trkpt lat="44.18983" lon="5.03946">
        <ele>312.82</ele>
        <time>2021-12-12T12:57:57Z</time>
      </trkpt>
      <trkpt lat="44.18993" lon="5.03928">
        <ele>312</ele>
        <time>2021-12-12T12:58:12Z</time>
      </trkpt>
      <trkpt lat="44.19001" lon="5.03925">
        <ele>311.43</ele>
        <time>2021-12-12T12:58:26Z</time>
      </trkpt>
      <trkpt lat="44.19002" lon="5.03928">
        <ele>311.5</ele>
        <time>2021-12-12T12:58:41Z</time>
      </trkpt>
      <trkpt lat="44.19003" lon="5.03925">
        <ele>311.49</ele>
        <time>2021-12-12T12:59:11Z</time>
      </trkpt>
      <trkpt lat="44.19005" lon="5.03927">
        <ele>311.58</ele>
        <time>2021-12-12T12:59:43Z</time>
      </trkpt>
      <trkpt lat="44.19003" lon="5.03926">
        <ele>311.35</ele>
        <time>2021-12-12T13:00:35Z</time>
      </trkpt>
      <trkpt lat="44.19007" lon="5.0393">
        <ele>311.32</ele>
        <time>2021-12-12T13:01:17Z</time>
      </trkpt>
      <trkpt lat="44.19016" lon="5.03938">
        <ele>311.17</ele>
        <time>2021-12-12T13:01:32Z</time>
      </trkpt>
      <trkpt lat="44.1902" lon="5.03941">
        <ele>311.16</ele>
        <time>2021-12-12T13:01:36Z</time>
      </trkpt>
      <trkpt lat="44.19028" lon="5.03945">
        <ele>311.21</ele>
        <time>2021-12-12T13:01:46Z</time>
      </trkpt>
      <trkpt lat="44.19032" lon="5.03946">
        <ele>311.26</ele>
        <time>2021-12-12T13:01:49Z</time>
      </trkpt>
      <trkpt lat="44.19045" lon="5.03948">
        <ele>311.43</ele>
        <time>2021-12-12T13:02:02Z</time>
      </trkpt>
      <trkpt lat="44.19056" lon="5.03951">
        <ele>311.42</ele>
        <time>2021-12-12T13:02:12Z</time>
      </trkpt>
      <trkpt lat="44.19068" lon="5.03953">
        <ele>311.42</ele>
        <time>2021-12-12T13:02:23Z</time>
      </trkpt>
      <trkpt lat="44.19088" lon="5.03954">
        <ele>311.24</ele>
        <time>2021-12-12T13:02:39Z</time>
      </trkpt>
      <trkpt lat="44.19091" lon="5.03956">
        <ele>311.24</ele>
        <time>2021-12-12T13:02:42Z</time>
      </trkpt>
      <trkpt lat="44.19094" lon="5.03959">
        <ele>311.24</ele>
        <time>2021-12-12T13:02:45Z</time>
      </trkpt>
      <trkpt lat="44.19107" lon="5.03965">
        <ele>311.32</ele>
        <time>2021-12-12T13:02:56Z</time>
      </trkpt>
      <trkpt lat="44.19118" lon="5.03973">
        <ele>311.59</ele>
        <time>2021-12-12T13:03:08Z</time>
      </trkpt>
      <trkpt lat="44.19131" lon="5.03983">
        <ele>311.98</ele>
        <time>2021-12-12T13:03:23Z</time>
      </trkpt>
      <trkpt lat="44.19144" lon="5.03988">
        <ele>312.01</ele>
        <time>2021-12-12T13:03:35Z</time>
      </trkpt>
      <trkpt lat="44.19161" lon="5.03992">
        <ele>311.61</ele>
        <time>2021-12-12T13:03:52Z</time>
      </trkpt>
      <trkpt lat="44.19175" lon="5.03997">
        <ele>311.28</ele>
        <time>2021-12-12T13:04:04Z</time>
      </trkpt>
      <trkpt lat="44.19191" lon="5.03998">
        <ele>311.15</ele>
        <time>2021-12-12T13:04:16Z</time>
      </trkpt>
      <trkpt lat="44.192" lon="5.03997">
        <ele>311.13</ele>
        <time>2021-12-12T13:04:28Z</time>
      </trkpt>
      <trkpt lat="44.19207" lon="5.03998">
        <ele>311.06</ele>
        <time>2021-12-12T13:04:34Z</time>
      </trkpt>
      <trkpt lat="44.19217" lon="5.04005">
        <ele>310.9</ele>
        <time>2021-12-12T13:04:45Z</time>
      </trkpt>
      <trkpt lat="44.19226" lon="5.04007">
        <ele>310.88</ele>
        <time>2021-12-12T13:04:53Z</time>
      </trkpt>
      <trkpt lat="44.19228" lon="5.04012">
        <ele>310.83</ele>
        <time>2021-12-12T13:04:57Z</time>
      </trkpt>
      <trkpt lat="44.1923" lon="5.04015">
        <ele>310.79</ele>
        <time>2021-12-12T13:05:00Z</time>
      </trkpt>
      <trkpt lat="44.19243" lon="5.04018">
        <ele>310.82</ele>
        <time>2021-12-12T13:05:12Z</time>
      </trkpt>
      <trkpt lat="44.1925" lon="5.04015">
        <ele>310.99</ele>
        <time>2021-12-12T13:05:17Z</time>
      </trkpt>
      <trkpt lat="44.19262" lon="5.04007">
        <ele>311.56</ele>
        <time>2021-12-12T13:05:29Z</time>
      </trkpt>
      <trkpt lat="44.19273" lon="5.04001">
        <ele>312.07</ele>
        <time>2021-12-12T13:05:41Z</time>
      </trkpt>
      <trkpt lat="44.19276" lon="5.03998">
        <ele>312.07</ele>
        <time>2021-12-12T13:05:45Z</time>
      </trkpt>
      <trkpt lat="44.19283" lon="5.03992">
        <ele>311.81</ele>
        <time>2021-12-12T13:05:51Z</time>
      </trkpt>
      <trkpt lat="44.19288" lon="5.0397">
        <ele>311.21</ele>
        <time>2021-12-12T13:06:06Z</time>
      </trkpt>
      <trkpt lat="44.19297" lon="5.03949">
        <ele>311.03</ele>
        <time>2021-12-12T13:06:21Z</time>
      </trkpt>
      <trkpt lat="44.193" lon="5.03941">
        <ele>311.02</ele>
        <time>2021-12-12T13:06:27Z</time>
      </trkpt>
      <trkpt lat="44.19312" lon="5.03927">
        <ele>310.97</ele>
        <time>2021-12-12T13:06:41Z</time>
      </trkpt>
      <trkpt lat="44.19322" lon="5.03915">
        <ele>310.6</ele>
        <time>2021-12-12T13:06:54Z</time>
      </trkpt>
      <trkpt lat="44.19328" lon="5.03907">
        <ele>310.18</ele>
        <time>2021-12-12T13:07:03Z</time>
      </trkpt>
      <trkpt lat="44.19337" lon="5.03904">
        <ele>310.03</ele>
        <time>2021-12-12T13:07:12Z</time>
      </trkpt>
      <trkpt lat="44.1934" lon="5.03903">
        <ele>309.9</ele>
        <time>2021-12-12T13:07:16Z</time>
      </trkpt>
      <trkpt lat="44.19343" lon="5.03903">
        <ele>309.9</ele>
        <time>2021-12-12T13:07:18Z</time>
      </trkpt>
      <trkpt lat="44.19351" lon="5.03904">
        <ele>309.88</ele>
        <time>2021-12-12T13:07:24Z</time>
      </trkpt>
      <trkpt lat="44.19353" lon="5.03904">
        <ele>309.9</ele>
        <time>2021-12-12T13:07:26Z</time>
      </trkpt>
      <trkpt lat="44.19366" lon="5.03907">
        <ele>310.31</ele>
        <time>2021-12-12T13:07:39Z</time>
      </trkpt>
      <trkpt lat="44.19374" lon="5.03909">
        <ele>311.06</ele>
        <time>2021-12-12T13:07:51Z</time>
      </trkpt>
      <trkpt lat="44.19382" lon="5.03912">
        <ele>311.29</ele>
        <time>2021-12-12T13:08:11Z</time>
      </trkpt>
      <trkpt lat="44.1938" lon="5.03914">
        <ele>312.09</ele>
        <time>2021-12-12T13:08:40Z</time>
      </trkpt>
      <trkpt lat="44.19382" lon="5.03903">
        <ele>311.55</ele>
        <time>2021-12-12T13:08:53Z</time>
      </trkpt>
      <trkpt lat="44.19394" lon="5.03904">
        <ele>311.01</ele>
        <time>2021-12-12T13:09:04Z</time>
      </trkpt>
      <trkpt lat="44.19397" lon="5.03908">
        <ele>311.41</ele>
        <time>2021-12-12T13:09:14Z</time>
      </trkpt>
      <trkpt lat="44.19405" lon="5.03911">
        <ele>311.74</ele>
        <time>2021-12-12T13:09:24Z</time>
      </trkpt>
      <trkpt lat="44.19407" lon="5.03912">
        <ele>311.85</ele>
        <time>2021-12-12T13:09:26Z</time>
      </trkpt>
      <trkpt lat="44.19407" lon="5.03914">
        <ele>313.33</ele>
        <time>2021-12-12T13:09:41Z</time>
      </trkpt>
      <trkpt lat="44.19411" lon="5.03914">
        <ele>313.55</ele>
        <time>2021-12-12T13:10:02Z</time>
      </trkpt>
      <trkpt lat="44.19415" lon="5.03915">
        <ele>314.18</ele>
        <time>2021-12-12T13:10:25Z</time>
      </trkpt>
      <trkpt lat="44.19421" lon="5.03913">
        <ele>314.86</ele>
        <time>2021-12-12T13:10:35Z</time>
      </trkpt>
      <trkpt lat="44.19434" lon="5.03914">
        <ele>316.76</ele>
        <time>2021-12-12T13:10:49Z</time>
      </trkpt>
      <trkpt lat="44.19446" lon="5.03918">
        <ele>317.78</ele>
        <time>2021-12-12T13:11:01Z</time>
      </trkpt>
      <trkpt lat="44.19448" lon="5.03918">
        <ele>318.05</ele>
        <time>2021-12-12T13:11:03Z</time>
      </trkpt>
      <trkpt lat="44.19458" lon="5.03919">
        <ele>318.95</ele>
        <time>2021-12-12T13:11:12Z</time>
      </trkpt>
      <trkpt lat="44.19469" lon="5.03921">
        <ele>319.96</ele>
        <time>2021-12-12T13:11:22Z</time>
      </trkpt>
      <trkpt lat="44.19478" lon="5.03925">
        <ele>321.04</ele>
        <time>2021-12-12T13:11:34Z</time>
      </trkpt>
      <trkpt lat="44.19485" lon="5.03927">
        <ele>322.63</ele>
        <time>2021-12-12T13:11:48Z</time>
      </trkpt>
      <trkpt lat="44.19496" lon="5.03927">
        <ele>323.24</ele>
        <time>2021-12-12T13:11:56Z</time>
      </trkpt>
      <trkpt lat="44.19506" lon="5.03932">
        <ele>324.38</ele>
        <time>2021-12-12T13:12:08Z</time>
      </trkpt>
      <trkpt lat="44.19513" lon="5.03936">
        <ele>325.73</ele>
        <time>2021-12-12T13:12:19Z</time>
      </trkpt>
      <trkpt lat="44.19515" lon="5.03939">
        <ele>326.76</ele>
        <time>2021-12-12T13:12:33Z</time>
      </trkpt>
      <trkpt lat="44.19523" lon="5.03939">
        <ele>327.36</ele>
        <time>2021-12-12T13:12:44Z</time>
      </trkpt>
      <trkpt lat="44.1953" lon="5.03939">
        <ele>328.47</ele>
        <time>2021-12-12T13:12:54Z</time>
      </trkpt>
      <trkpt lat="44.19539" lon="5.03933">
        <ele>330.06</ele>
        <time>2021-12-12T13:13:07Z</time>
      </trkpt>
      <trkpt lat="44.19547" lon="5.03923">
        <ele>331.53</ele>
        <time>2021-12-12T13:13:19Z</time>
      </trkpt>
      <trkpt lat="44.19553" lon="5.03918">
        <ele>332.52</ele>
        <time>2021-12-12T13:13:27Z</time>
      </trkpt>
      <trkpt lat="44.19561" lon="5.03911">
        <ele>333.52</ele>
        <time>2021-12-12T13:13:37Z</time>
      </trkpt>
      <trkpt lat="44.19572" lon="5.03904">
        <ele>335.14</ele>
        <time>2021-12-12T13:13:51Z</time>
      </trkpt>
      <trkpt lat="44.19583" lon="5.03895">
        <ele>337.08</ele>
        <time>2021-12-12T13:14:06Z</time>
      </trkpt>
      <trkpt lat="44.19591" lon="5.03887">
        <ele>338.63</ele>
        <time>2021-12-12T13:14:20Z</time>
      </trkpt>
      <trkpt lat="44.196" lon="5.03874">
        <ele>340.79</ele>
        <time>2021-12-12T13:14:37Z</time>
      </trkpt>
      <trkpt lat="44.19606" lon="5.03859">
        <ele>343.26</ele>
        <time>2021-12-12T13:14:56Z</time>
      </trkpt>
      <trkpt lat="44.19612" lon="5.03842">
        <ele>344.67</ele>
        <time>2021-12-12T13:15:12Z</time>
      </trkpt>
      <trkpt lat="44.19614" lon="5.03841">
        <ele>344.93</ele>
        <time>2021-12-12T13:15:25Z</time>
      </trkpt>
      <trkpt lat="44.19614" lon="5.0384">
        <ele>345.13</ele>
        <time>2021-12-12T13:15:42Z</time>
      </trkpt>
      <trkpt lat="44.19608" lon="5.03846">
        <ele>345.1</ele>
        <time>2021-12-12T13:16:22Z</time>
      </trkpt>
      <trkpt lat="44.19604" lon="5.03849">
        <ele>344.86</ele>
        <time>2021-12-12T13:16:36Z</time>
      </trkpt>
      <trkpt lat="44.19602" lon="5.03849">
        <ele>344.64</ele>
        <time>2021-12-12T13:17:32Z</time>
      </trkpt>
      <trkpt lat="44.19604" lon="5.03849">
        <ele>344.71</ele>
        <time>2021-12-12T13:18:17Z</time>
      </trkpt>
      <trkpt lat="44.19604" lon="5.0385">
        <ele>344.87</ele>
        <time>2021-12-12T13:19:00Z</time>
      </trkpt>
      <trkpt lat="44.19608" lon="5.03845">
        <ele>344.86</ele>
        <time>2021-12-12T13:19:23Z</time>
      </trkpt>
      <trkpt lat="44.19613" lon="5.03838">
        <ele>344.9</ele>
        <time>2021-12-12T13:19:29Z</time>
      </trkpt>
      <trkpt lat="44.19623" lon="5.03828">
        <ele>345.16</ele>
        <time>2021-12-12T13:19:40Z</time>
      </trkpt>
      <trkpt lat="44.19634" lon="5.03821">
        <ele>346.14</ele>
        <time>2021-12-12T13:19:50Z</time>
      </trkpt>
      <trkpt lat="44.19641" lon="5.03817">
        <ele>347.07</ele>
        <time>2021-12-12T13:19:57Z</time>
      </trkpt>
      <trkpt lat="44.1965" lon="5.03818">
        <ele>348.35</ele>
        <time>2021-12-12T13:20:06Z</time>
      </trkpt>
      <trkpt lat="44.19656" lon="5.0382">
        <ele>349.08</ele>
        <time>2021-12-12T13:20:20Z</time>
      </trkpt>
      <trkpt lat="44.19662" lon="5.03822">
        <ele>349.21</ele>
        <time>2021-12-12T13:20:26Z</time>
      </trkpt>
      <trkpt lat="44.19669" lon="5.03823">
        <ele>349.2</ele>
        <time>2021-12-12T13:20:34Z</time>
      </trkpt>
      <trkpt lat="44.19677" lon="5.03821">
        <ele>349.37</ele>
        <time>2021-12-12T13:20:44Z</time>
      </trkpt>
      <trkpt lat="44.19686" lon="5.03817">
        <ele>350.32</ele>
        <time>2021-12-12T13:20:54Z</time>
      </trkpt>
      <trkpt lat="44.19693" lon="5.0381">
        <ele>351.16</ele>
        <time>2021-12-12T13:21:03Z</time>
      </trkpt>
      <trkpt lat="44.19704" lon="5.03797">
        <ele>352.87</ele>
        <time>2021-12-12T13:21:17Z</time>
      </trkpt>
      <trkpt lat="44.19713" lon="5.03785">
        <ele>353.95</ele>
        <time>2021-12-12T13:21:28Z</time>
      </trkpt>
      <trkpt lat="44.1972" lon="5.03773">
        <ele>355.05</ele>
        <time>2021-12-12T13:21:39Z</time>
      </trkpt>
      <trkpt lat="44.19727" lon="5.03758">
        <ele>356.2</ele>
        <time>2021-12-12T13:21:55Z</time>
      </trkpt>
      <trkpt lat="44.19735" lon="5.03746">
        <ele>357.12</ele>
        <time>2021-12-12T13:22:08Z</time>
      </trkpt>
      <trkpt lat="44.19742" lon="5.0373">
        <ele>358.3</ele>
        <time>2021-12-12T13:22:22Z</time>
      </trkpt>
      <trkpt lat="44.19747" lon="5.03719">
        <ele>359.67</ele>
        <time>2021-12-12T13:22:35Z</time>
      </trkpt>
      <trkpt lat="44.19754" lon="5.03708">
        <ele>360.7</ele>
        <time>2021-12-12T13:22:47Z</time>
      </trkpt>
      <trkpt lat="44.19761" lon="5.0369">
        <ele>362.38</ele>
        <time>2021-12-12T13:23:03Z</time>
      </trkpt>
      <trkpt lat="44.19768" lon="5.03677">
        <ele>363.52</ele>
        <time>2021-12-12T13:23:14Z</time>
      </trkpt>
      <trkpt lat="44.19774" lon="5.03665">
        <ele>364.75</ele>
        <time>2021-12-12T13:23:25Z</time>
      </trkpt>
      <trkpt lat="44.1978" lon="5.03657">
        <ele>366.01</ele>
        <time>2021-12-12T13:23:35Z</time>
      </trkpt>
      <trkpt lat="44.19788" lon="5.03649">
        <ele>367.33</ele>
        <time>2021-12-12T13:23:46Z</time>
      </trkpt>
      <trkpt lat="44.19795" lon="5.0364">
        <ele>368.47</ele>
        <time>2021-12-12T13:23:59Z</time>
      </trkpt>
      <trkpt lat="44.19801" lon="5.03625">
        <ele>370.31</ele>
        <time>2021-12-12T13:24:12Z</time>
      </trkpt>
      <trkpt lat="44.19806" lon="5.03614">
        <ele>371.9</ele>
        <time>2021-12-12T13:24:23Z</time>
      </trkpt>
      <trkpt lat="44.19808" lon="5.03604">
        <ele>373.5</ele>
        <time>2021-12-12T13:24:34Z</time>
      </trkpt>
      <trkpt lat="44.19809" lon="5.03588">
        <ele>375.44</ele>
        <time>2021-12-12T13:24:50Z</time>
      </trkpt>
      <trkpt lat="44.1981" lon="5.03574">
        <ele>376.52</ele>
        <time>2021-12-12T13:25:02Z</time>
      </trkpt>
      <trkpt lat="44.19813" lon="5.03566">
        <ele>377.97</ele>
        <time>2021-12-12T13:25:19Z</time>
      </trkpt>
      <trkpt lat="44.19814" lon="5.0357">
        <ele>378.11</ele>
        <time>2021-12-12T13:26:03Z</time>
      </trkpt>
      <trkpt lat="44.19814" lon="5.03569">
        <ele>378.49</ele>
        <time>2021-12-12T13:26:57Z</time>
      </trkpt>
      <trkpt lat="44.19813" lon="5.03565">
        <ele>378.4</ele>
        <time>2021-12-12T13:27:24Z</time>
      </trkpt>
      <trkpt lat="44.19813" lon="5.03561">
        <ele>378.34</ele>
        <time>2021-12-12T13:27:59Z</time>
      </trkpt>
      <trkpt lat="44.19813" lon="5.03553">
        <ele>378.37</ele>
        <time>2021-12-12T13:28:45Z</time>
      </trkpt>
      <trkpt lat="44.19812" lon="5.03541">
        <ele>378.29</ele>
        <time>2021-12-12T13:29:05Z</time>
      </trkpt>
      <trkpt lat="44.1981" lon="5.03526">
        <ele>377.25</ele>
        <time>2021-12-12T13:29:24Z</time>
      </trkpt>
      <trkpt lat="44.19815" lon="5.03511">
        <ele>375.46</ele>
        <time>2021-12-12T13:29:41Z</time>
      </trkpt>
      <trkpt lat="44.19822" lon="5.03499">
        <ele>373.06</ele>
        <time>2021-12-12T13:29:58Z</time>
      </trkpt>
      <trkpt lat="44.1983" lon="5.03489">
        <ele>370.61</ele>
        <time>2021-12-12T13:30:12Z</time>
      </trkpt>
      <trkpt lat="44.19826" lon="5.03472">
        <ele>368.15</ele>
        <time>2021-12-12T13:30:28Z</time>
      </trkpt>
      <trkpt lat="44.19814" lon="5.03466">
        <ele>365.66</ele>
        <time>2021-12-12T13:30:44Z</time>
      </trkpt>
      <trkpt lat="44.19814" lon="5.03462">
        <ele>364.44</ele>
        <time>2021-12-12T13:31:02Z</time>
      </trkpt>
      <trkpt lat="44.19807" lon="5.03456">
        <ele>364.34</ele>
        <time>2021-12-12T13:31:13Z</time>
      </trkpt>
      <trkpt lat="44.19802" lon="5.03444">
        <ele>363.11</ele>
        <time>2021-12-12T13:31:27Z</time>
      </trkpt>
      <trkpt lat="44.19796" lon="5.03434">
        <ele>361.78</ele>
        <time>2021-12-12T13:31:40Z</time>
      </trkpt>
      <trkpt lat="44.1979" lon="5.03421">
        <ele>359.85</ele>
        <time>2021-12-12T13:31:54Z</time>
      </trkpt>
      <trkpt lat="44.19785" lon="5.03407">
        <ele>358.19</ele>
        <time>2021-12-12T13:32:07Z</time>
      </trkpt>
      <trkpt lat="44.19783" lon="5.03397">
        <ele>356.59</ele>
        <time>2021-12-12T13:32:20Z</time>
      </trkpt>
      <trkpt lat="44.19781" lon="5.03392">
        <ele>355.76</ele>
        <time>2021-12-12T13:32:32Z</time>
      </trkpt>
      <trkpt lat="44.19776" lon="5.03375">
        <ele>354.53</ele>
        <time>2021-12-12T13:32:51Z</time>
      </trkpt>
      <trkpt lat="44.19771" lon="5.03362">
        <ele>353.7</ele>
        <time>2021-12-12T13:33:03Z</time>
      </trkpt>
      <trkpt lat="44.19775" lon="5.03351">
        <ele>352.34</ele>
        <time>2021-12-12T13:33:16Z</time>
      </trkpt>
      <trkpt lat="44.19784" lon="5.03361">
        <ele>350.38</ele>
        <time>2021-12-12T13:33:29Z</time>
      </trkpt>
      <trkpt lat="44.19787" lon="5.03375">
        <ele>349.14</ele>
        <time>2021-12-12T13:33:38Z</time>
      </trkpt>
      <trkpt lat="44.19792" lon="5.03385">
        <ele>347.19</ele>
        <time>2021-12-12T13:33:50Z</time>
      </trkpt>
      <trkpt lat="44.19802" lon="5.03398">
        <ele>345.04</ele>
        <time>2021-12-12T13:34:06Z</time>
      </trkpt>
      <trkpt lat="44.19817" lon="5.034">
        <ele>342.44</ele>
        <time>2021-12-12T13:34:23Z</time>
      </trkpt>
      <trkpt lat="44.19828" lon="5.03395">
        <ele>340.22</ele>
        <time>2021-12-12T13:34:35Z</time>
      </trkpt>
      <trkpt lat="44.19837" lon="5.03386">
        <ele>338.52</ele>
        <time>2021-12-12T13:34:49Z</time>
      </trkpt>
      <trkpt lat="44.1983" lon="5.03371">
        <ele>336.58</ele>
        <time>2021-12-12T13:35:04Z</time>
      </trkpt>
      <trkpt lat="44.19829" lon="5.0337">
        <ele>336.47</ele>
        <time>2021-12-12T13:35:05Z</time>
      </trkpt>
      <trkpt lat="44.19821" lon="5.03366">
        <ele>333.87</ele>
        <time>2021-12-12T13:35:19Z</time>
      </trkpt>
      <trkpt lat="44.1982" lon="5.03358">
        <ele>332.87</ele>
        <time>2021-12-12T13:35:34Z</time>
      </trkpt>
      <trkpt lat="44.19819" lon="5.03357">
        <ele>332.85</ele>
        <time>2021-12-12T13:35:35Z</time>
      </trkpt>
      <trkpt lat="44.19823" lon="5.03343">
        <ele>332.1</ele>
        <time>2021-12-12T13:35:47Z</time>
      </trkpt>
      <trkpt lat="44.19827" lon="5.03328">
        <ele>330.79</ele>
        <time>2021-12-12T13:35:59Z</time>
      </trkpt>
      <trkpt lat="44.19829" lon="5.03312">
        <ele>328.73</ele>
        <time>2021-12-12T13:36:12Z</time>
      </trkpt>
      <trkpt lat="44.1983" lon="5.03289">
        <ele>325.84</ele>
        <time>2021-12-12T13:36:30Z</time>
      </trkpt>
      <trkpt lat="44.19829" lon="5.03287">
        <ele>323.96</ele>
        <time>2021-12-12T13:36:51Z</time>
      </trkpt>
      <trkpt lat="44.1983" lon="5.03285">
        <ele>323.85</ele>
        <time>2021-12-12T13:37:09Z</time>
      </trkpt>
      <trkpt lat="44.19828" lon="5.03271">
        <ele>323.33</ele>
        <time>2021-12-12T13:37:37Z</time>
      </trkpt>
      <trkpt lat="44.19825" lon="5.03253">
        <ele>321.38</ele>
        <time>2021-12-12T13:37:51Z</time>
      </trkpt>
      <trkpt lat="44.19818" lon="5.0324">
        <ele>320.15</ele>
        <time>2021-12-12T13:38:00Z</time>
      </trkpt>
      <trkpt lat="44.19809" lon="5.03233">
        <ele>318.87</ele>
        <time>2021-12-12T13:38:09Z</time>
      </trkpt>
      <trkpt lat="44.19796" lon="5.0323">
        <ele>317.21</ele>
        <time>2021-12-12T13:38:21Z</time>
      </trkpt>
      <trkpt lat="44.19776" lon="5.03232">
        <ele>315.08</ele>
        <time>2021-12-12T13:38:38Z</time>
      </trkpt>
      <trkpt lat="44.1977" lon="5.03221">
        <ele>313.94</ele>
        <time>2021-12-12T13:38:47Z</time>
      </trkpt>
      <trkpt lat="44.19755" lon="5.03209">
        <ele>312.69</ele>
        <time>2021-12-12T13:39:04Z</time>
      </trkpt>
      <trkpt lat="44.19739" lon="5.03201">
        <ele>311.36</ele>
        <time>2021-12-12T13:39:21Z</time>
      </trkpt>
      <trkpt lat="44.19726" lon="5.03199">
        <ele>309.53</ele>
        <time>2021-12-12T13:39:33Z</time>
      </trkpt>
      <trkpt lat="44.19712" lon="5.03196">
        <ele>308.29</ele>
        <time>2021-12-12T13:39:47Z</time>
      </trkpt>
      <trkpt lat="44.19708" lon="5.03195">
        <ele>307.98</ele>
        <time>2021-12-12T13:39:51Z</time>
      </trkpt>
      <trkpt lat="44.19695" lon="5.03191">
        <ele>307.17</ele>
        <time>2021-12-12T13:40:06Z</time>
      </trkpt>
      <trkpt lat="44.19689" lon="5.03179">
        <ele>305.54</ele>
        <time>2021-12-12T13:40:21Z</time>
      </trkpt>
      <trkpt lat="44.19706" lon="5.03178">
        <ele>302.95</ele>
        <time>2021-12-12T13:40:36Z</time>
      </trkpt>
      <trkpt lat="44.19717" lon="5.03177">
        <ele>300.79</ele>
        <time>2021-12-12T13:40:49Z</time>
      </trkpt>
      <trkpt lat="44.19719" lon="5.03176">
        <ele>300.44</ele>
        <time>2021-12-12T13:40:51Z</time>
      </trkpt>
      <trkpt lat="44.19733" lon="5.03168">
        <ele>298.52</ele>
        <time>2021-12-12T13:41:04Z</time>
      </trkpt>
      <trkpt lat="44.19747" lon="5.03164">
        <ele>296.07</ele>
        <time>2021-12-12T13:41:19Z</time>
      </trkpt>
      <trkpt lat="44.19761" lon="5.0316">
        <ele>293.62</ele>
        <time>2021-12-12T13:41:34Z</time>
      </trkpt>
      <trkpt lat="44.19775" lon="5.0316">
        <ele>291.08</ele>
        <time>2021-12-12T13:41:48Z</time>
      </trkpt>
      <trkpt lat="44.19791" lon="5.03159">
        <ele>289.96</ele>
        <time>2021-12-12T13:42:04Z</time>
      </trkpt>
      <trkpt lat="44.19796" lon="5.03159">
        <ele>289.69</ele>
        <time>2021-12-12T13:42:09Z</time>
      </trkpt>
      <trkpt lat="44.19818" lon="5.03155">
        <ele>287.99</ele>
        <time>2021-12-12T13:42:25Z</time>
      </trkpt>
      <trkpt lat="44.1982" lon="5.03155">
        <ele>287.78</ele>
        <time>2021-12-12T13:42:27Z</time>
      </trkpt>
      <trkpt lat="44.19832" lon="5.03155">
        <ele>286.21</ele>
        <time>2021-12-12T13:42:40Z</time>
      </trkpt>
      <trkpt lat="44.19844" lon="5.03157">
        <ele>285.25</ele>
        <time>2021-12-12T13:42:49Z</time>
      </trkpt>
      <trkpt lat="44.19849" lon="5.03158">
        <ele>284.97</ele>
        <time>2021-12-12T13:42:54Z</time>
      </trkpt>
      <trkpt lat="44.1986" lon="5.03159">
        <ele>284.05</ele>
        <time>2021-12-12T13:43:05Z</time>
      </trkpt>
      <trkpt lat="44.19868" lon="5.03158">
        <ele>283.7</ele>
        <time>2021-12-12T13:43:12Z</time>
      </trkpt>
      <trkpt lat="44.19873" lon="5.03156">
        <ele>283.62</ele>
        <time>2021-12-12T13:43:16Z</time>
      </trkpt>
      <trkpt lat="44.19886" lon="5.03143">
        <ele>283.45</ele>
        <time>2021-12-12T13:43:31Z</time>
      </trkpt>
      <trkpt lat="44.19899" lon="5.03141">
        <ele>283.13</ele>
        <time>2021-12-12T13:43:47Z</time>
      </trkpt>
      <trkpt lat="44.19911" lon="5.03138">
        <ele>282.24</ele>
        <time>2021-12-12T13:44:04Z</time>
      </trkpt>
      <trkpt lat="44.19916" lon="5.03137">
        <ele>282.01</ele>
        <time>2021-12-12T13:44:10Z</time>
      </trkpt>
      <trkpt lat="44.19926" lon="5.03135">
        <ele>280.55</ele>
        <time>2021-12-12T13:44:22Z</time>
      </trkpt>
      <trkpt lat="44.19938" lon="5.03131">
        <ele>278.84</ele>
        <time>2021-12-12T13:44:35Z</time>
      </trkpt>
      <trkpt lat="44.19953" lon="5.03117">
        <ele>277.1</ele>
        <time>2021-12-12T13:44:54Z</time>
      </trkpt>
      <trkpt lat="44.19954" lon="5.03114">
        <ele>276.28</ele>
        <time>2021-12-12T13:45:10Z</time>
      </trkpt>
      <trkpt lat="44.19957" lon="5.03107">
        <ele>275.96</ele>
        <time>2021-12-12T13:45:24Z</time>
      </trkpt>
      <trkpt lat="44.19958" lon="5.03103">
        <ele>275.63</ele>
        <time>2021-12-12T13:45:45Z</time>
      </trkpt>
      <trkpt lat="44.19962" lon="5.03101">
        <ele>275.5</ele>
        <time>2021-12-12T13:46:07Z</time>
      </trkpt>
      <trkpt lat="44.19965" lon="5.031">
        <ele>275.1</ele>
        <time>2021-12-12T13:46:24Z</time>
      </trkpt>
      <trkpt lat="44.19968" lon="5.03101">
        <ele>275.02</ele>
        <time>2021-12-12T13:46:44Z</time>
      </trkpt>
      <trkpt lat="44.19969" lon="5.03101">
        <ele>275.02</ele>
        <time>2021-12-12T13:46:45Z</time>
      </trkpt>
      <trkpt lat="44.19981" lon="5.03099">
        <ele>274.68</ele>
        <time>2021-12-12T13:46:58Z</time>
      </trkpt>
      <trkpt lat="44.19993" lon="5.03097">
        <ele>273.79</ele>
        <time>2021-12-12T13:47:10Z</time>
      </trkpt>
      <trkpt lat="44.20008" lon="5.03096">
        <ele>272.91</ele>
        <time>2021-12-12T13:47:24Z</time>
      </trkpt>
      <trkpt lat="44.20019" lon="5.03094">
        <ele>272.23</ele>
        <time>2021-12-12T13:47:36Z</time>
      </trkpt>
      <trkpt lat="44.2003" lon="5.03092">
        <ele>271.52</ele>
        <time>2021-12-12T13:47:51Z</time>
      </trkpt>
      <trkpt lat="44.2004" lon="5.0309">
        <ele>271.23</ele>
        <time>2021-12-12T13:48:05Z</time>
      </trkpt>
      <trkpt lat="44.20054" lon="5.03087">
        <ele>270.92</ele>
        <time>2021-12-12T13:48:19Z</time>
      </trkpt>
      <trkpt lat="44.20062" lon="5.03089">
        <ele>270.64</ele>
        <time>2021-12-12T13:48:30Z</time>
      </trkpt>
      <trkpt lat="44.2007" lon="5.03089">
        <ele>270.18</ele>
        <time>2021-12-12T13:48:48Z</time>
      </trkpt>
      <trkpt lat="44.20078" lon="5.03079">
        <ele>269.55</ele>
        <time>2021-12-12T13:49:04Z</time>
      </trkpt>
      <trkpt lat="44.20094" lon="5.03069">
        <ele>267.8</ele>
        <time>2021-12-12T13:49:22Z</time>
      </trkpt>
      <trkpt lat="44.20102" lon="5.03061">
        <ele>267.16</ele>
        <time>2021-12-12T13:49:33Z</time>
      </trkpt>
      <trkpt lat="44.20113" lon="5.03053">
        <ele>265.85</ele>
        <time>2021-12-12T13:49:46Z</time>
      </trkpt>
      <trkpt lat="44.20126" lon="5.03043">
        <ele>264.26</ele>
        <time>2021-12-12T13:50:02Z</time>
      </trkpt>
      <trkpt lat="44.2014" lon="5.03033">
        <ele>262.59</ele>
        <time>2021-12-12T13:50:17Z</time>
      </trkpt>
      <trkpt lat="44.20153" lon="5.03025">
        <ele>261.11</ele>
        <time>2021-12-12T13:50:31Z</time>
      </trkpt>
      <trkpt lat="44.20164" lon="5.03015">
        <ele>259.36</ele>
        <time>2021-12-12T13:50:44Z</time>
      </trkpt>
      <trkpt lat="44.20171" lon="5.03005">
        <ele>258.3</ele>
        <time>2021-12-12T13:50:54Z</time>
      </trkpt>
      <trkpt lat="44.20171" lon="5.03004">
        <ele>258.13</ele>
        <time>2021-12-12T13:50:55Z</time>
      </trkpt>
      <trkpt lat="44.20178" lon="5.02983">
        <ele>255.94</ele>
        <time>2021-12-12T13:51:10Z</time>
      </trkpt>
      <trkpt lat="44.20185" lon="5.02966">
        <ele>254.3</ele>
        <time>2021-12-12T13:51:23Z</time>
      </trkpt>
      <trkpt lat="44.20193" lon="5.02951">
        <ele>252.42</ele>
        <time>2021-12-12T13:51:37Z</time>
      </trkpt>
      <trkpt lat="44.20198" lon="5.02942">
        <ele>251.56</ele>
        <time>2021-12-12T13:51:45Z</time>
      </trkpt>
      <trkpt lat="44.2021" lon="5.02927">
        <ele>249.9</ele>
        <time>2021-12-12T13:52:00Z</time>
      </trkpt>
      <trkpt lat="44.20233" lon="5.02913">
        <ele>248.19</ele>
        <time>2021-12-12T13:52:22Z</time>
      </trkpt>
      <trkpt lat="44.20246" lon="5.02898">
        <ele>247.01</ele>
        <time>2021-12-12T13:52:40Z</time>
      </trkpt>
      <trkpt lat="44.20258" lon="5.0288">
        <ele>244.68</ele>
        <time>2021-12-12T13:52:57Z</time>
      </trkpt>
      <trkpt lat="44.2027" lon="5.02866">
        <ele>243.05</ele>
        <time>2021-12-12T13:53:13Z</time>
      </trkpt>
      <trkpt lat="44.2028" lon="5.02852">
        <ele>241.62</ele>
        <time>2021-12-12T13:53:27Z</time>
      </trkpt>
      <trkpt lat="44.20289" lon="5.02836">
        <ele>239.81</ele>
        <time>2021-12-12T13:53:42Z</time>
      </trkpt>
      <trkpt lat="44.2029" lon="5.02835">
        <ele>239.76</ele>
        <time>2021-12-12T13:53:43Z</time>
      </trkpt>
      <trkpt lat="44.20297" lon="5.02822">
        <ele>238.8</ele>
        <time>2021-12-12T13:53:55Z</time>
      </trkpt>
      <trkpt lat="44.20302" lon="5.02814">
        <ele>238.01</ele>
        <time>2021-12-12T13:54:02Z</time>
      </trkpt>
      <trkpt lat="44.20311" lon="5.02803">
        <ele>236.54</ele>
        <time>2021-12-12T13:54:16Z</time>
      </trkpt>
      <trkpt lat="44.20315" lon="5.02799">
        <ele>235.6</ele>
        <time>2021-12-12T13:54:25Z</time>
      </trkpt>
      <trkpt lat="44.20318" lon="5.02793">
        <ele>235.27</ele>
        <time>2021-12-12T13:54:30Z</time>
      </trkpt>
      <trkpt lat="44.20326" lon="5.02782">
        <ele>234.53</ele>
        <time>2021-12-12T13:54:42Z</time>
      </trkpt>
      <trkpt lat="44.20339" lon="5.02763">
        <ele>233.33</ele>
        <time>2021-12-12T13:54:58Z</time>
      </trkpt>
      <trkpt lat="44.20346" lon="5.02736">
        <ele>232.36</ele>
        <time>2021-12-12T13:55:17Z</time>
      </trkpt>
      <trkpt lat="44.20347" lon="5.02731">
        <ele>232.06</ele>
        <time>2021-12-12T13:55:21Z</time>
      </trkpt>
      <trkpt lat="44.2035" lon="5.02719">
        <ele>231.67</ele>
        <time>2021-12-12T13:55:29Z</time>
      </trkpt>
      <trkpt lat="44.20352" lon="5.02713">
        <ele>231.54</ele>
        <time>2021-12-12T13:55:34Z</time>
      </trkpt>
      <trkpt lat="44.20361" lon="5.02699">
        <ele>231.05</ele>
        <time>2021-12-12T13:55:48Z</time>
      </trkpt>
      <trkpt lat="44.20365" lon="5.02697">
        <ele>230.79</ele>
        <time>2021-12-12T13:56:00Z</time>
      </trkpt>
      <trkpt lat="44.20368" lon="5.0269">
        <ele>230.69</ele>
        <time>2021-12-12T13:56:11Z</time>
      </trkpt>
      <trkpt lat="44.2037" lon="5.02687">
        <ele>230.66</ele>
        <time>2021-12-12T13:56:14Z</time>
      </trkpt>
      <trkpt lat="44.20378" lon="5.02669">
        <ele>230.29</ele>
        <time>2021-12-12T13:56:28Z</time>
      </trkpt>
      <trkpt lat="44.20383" lon="5.02656">
        <ele>230.04</ele>
        <time>2021-12-12T13:56:37Z</time>
      </trkpt>
      <trkpt lat="44.20387" lon="5.02636">
        <ele>230.04</ele>
        <time>2021-12-12T13:56:52Z</time>
      </trkpt>
      <trkpt lat="44.20388" lon="5.02621">
        <ele>230.21</ele>
        <time>2021-12-12T13:57:02Z</time>
      </trkpt>
      <trkpt lat="44.20389" lon="5.02618">
        <ele>230.27</ele>
        <time>2021-12-12T13:57:04Z</time>
      </trkpt>
      <trkpt lat="44.20389" lon="5.02614">
        <ele>230.35</ele>
        <time>2021-12-12T13:57:07Z</time>
      </trkpt>
      <trkpt lat="44.20388" lon="5.02609">
        <ele>230.5</ele>
        <time>2021-12-12T13:57:10Z</time>
      </trkpt>
      <trkpt lat="44.20388" lon="5.02587">
        <ele>231.15</ele>
        <time>2021-12-12T13:57:23Z</time>
      </trkpt>
      <trkpt lat="44.20387" lon="5.02564">
        <ele>232.16</ele>
        <time>2021-12-12T13:57:37Z</time>
      </trkpt>
      <trkpt lat="44.20383" lon="5.02542">
        <ele>232.52</ele>
        <time>2021-12-12T13:57:51Z</time>
      </trkpt>
      <trkpt lat="44.20379" lon="5.02518">
        <ele>232.89</ele>
        <time>2021-12-12T13:58:07Z</time>
      </trkpt>
      <trkpt lat="44.20373" lon="5.02501">
        <ele>232.57</ele>
        <time>2021-12-12T13:58:21Z</time>
      </trkpt>
      <trkpt lat="44.20372" lon="5.02494">
        <ele>232.11</ele>
        <time>2021-12-12T13:58:30Z</time>
      </trkpt>
      <trkpt lat="44.20373" lon="5.02481">
        <ele>232.05</ele>
        <time>2021-12-12T13:58:42Z</time>
      </trkpt>
      <trkpt lat="44.20377" lon="5.02469">
        <ele>232.29</ele>
        <time>2021-12-12T13:58:53Z</time>
      </trkpt>
      <trkpt lat="44.20383" lon="5.02457">
        <ele>232.67</ele>
        <time>2021-12-12T13:59:04Z</time>
      </trkpt>
      <trkpt lat="44.20385" lon="5.02437">
        <ele>233.59</ele>
        <time>2021-12-12T13:59:18Z</time>
      </trkpt>
      <trkpt lat="44.20385" lon="5.02423">
        <ele>234.06</ele>
        <time>2021-12-12T13:59:32Z</time>
      </trkpt>
      <trkpt lat="44.20387" lon="5.02422">
        <ele>233.35</ele>
        <time>2021-12-12T13:59:58Z</time>
      </trkpt>
      <trkpt lat="44.20388" lon="5.0242">
        <ele>233.07</ele>
        <time>2021-12-12T14:00:16Z</time>
      </trkpt>
      <trkpt lat="44.20387" lon="5.02409">
        <ele>232.69</ele>
        <time>2021-12-12T14:00:26Z</time>
      </trkpt>
      <trkpt lat="44.20387" lon="5.02404">
        <ele>232.3</ele>
        <time>2021-12-12T14:00:30Z</time>
      </trkpt>
      <trkpt lat="44.20391" lon="5.02386">
        <ele>231.88</ele>
        <time>2021-12-12T14:00:45Z</time>
      </trkpt>
      <trkpt lat="44.20395" lon="5.02376">
        <ele>232.24</ele>
        <time>2021-12-12T14:00:56Z</time>
      </trkpt>
      <trkpt lat="44.20398" lon="5.02368">
        <ele>232.71</ele>
        <time>2021-12-12T14:01:14Z</time>
      </trkpt>
      <trkpt lat="44.20401" lon="5.02359">
        <ele>232.73</ele>
        <time>2021-12-12T14:01:28Z</time>
      </trkpt>
      <trkpt lat="44.20401" lon="5.02353">
        <ele>233.11</ele>
        <time>2021-12-12T14:01:43Z</time>
      </trkpt>
      <trkpt lat="44.20398" lon="5.02347">
        <ele>233.36</ele>
        <time>2021-12-12T14:02:01Z</time>
      </trkpt>
      <trkpt lat="44.20397" lon="5.02341">
        <ele>233.43</ele>
        <time>2021-12-12T14:02:11Z</time>
      </trkpt>
      <trkpt lat="44.20396" lon="5.02343">
        <ele>233.16</ele>
        <time>2021-12-12T14:02:57Z</time>
      </trkpt>
      <trkpt lat="44.20401" lon="5.02342">
        <ele>233.18</ele>
        <time>2021-12-12T14:03:48Z</time>
      </trkpt>
      <trkpt lat="44.20401" lon="5.02337">
        <ele>233.22</ele>
        <time>2021-12-12T14:04:00Z</time>
      </trkpt>
      <trkpt lat="44.20406" lon="5.02324">
        <ele>233.56</ele>
        <time>2021-12-12T14:04:15Z</time>
      </trkpt>
      <trkpt lat="44.20413" lon="5.0232">
        <ele>234.13</ele>
        <time>2021-12-12T14:04:27Z</time>
      </trkpt>
      <trkpt lat="44.20423" lon="5.02316">
        <ele>234.9</ele>
        <time>2021-12-12T14:04:38Z</time>
      </trkpt>
      <trkpt lat="44.20435" lon="5.02308">
        <ele>236.36</ele>
        <time>2021-12-12T14:04:53Z</time>
      </trkpt>
      <trkpt lat="44.20445" lon="5.02306">
        <ele>237.96</ele>
        <time>2021-12-12T14:05:09Z</time>
      </trkpt>
      <trkpt lat="44.20451" lon="5.02306">
        <ele>238.43</ele>
        <time>2021-12-12T14:05:20Z</time>
      </trkpt>
      <trkpt lat="44.20452" lon="5.02306">
        <ele>238.51</ele>
        <time>2021-12-12T14:05:21Z</time>
      </trkpt>
      <trkpt lat="44.20468" lon="5.02307">
        <ele>240.29</ele>
        <time>2021-12-12T14:05:39Z</time>
      </trkpt>
      <trkpt lat="44.20478" lon="5.02309">
        <ele>241.43</ele>
        <time>2021-12-12T14:05:55Z</time>
      </trkpt>
      <trkpt lat="44.20488" lon="5.02306">
        <ele>241.87</ele>
        <time>2021-12-12T14:06:13Z</time>
      </trkpt>
      <trkpt lat="44.20496" lon="5.02297">
        <ele>242.3</ele>
        <time>2021-12-12T14:06:27Z</time>
      </trkpt>
      <trkpt lat="44.20495" lon="5.02294">
        <ele>242.39</ele>
        <time>2021-12-12T14:06:44Z</time>
      </trkpt>
      <trkpt lat="44.20499" lon="5.02295">
        <ele>242.23</ele>
        <time>2021-12-12T14:07:05Z</time>
      </trkpt>
      <trkpt lat="44.20507" lon="5.02292">
        <ele>242.46</ele>
        <time>2021-12-12T14:07:20Z</time>
      </trkpt>
      <trkpt lat="44.20523" lon="5.02288">
        <ele>243.2</ele>
        <time>2021-12-12T14:07:39Z</time>
      </trkpt>
      <trkpt lat="44.20533" lon="5.02288">
        <ele>243.57</ele>
        <time>2021-12-12T14:07:53Z</time>
      </trkpt>
      <trkpt lat="44.20542" lon="5.02289">
        <ele>244.14</ele>
        <time>2021-12-12T14:08:07Z</time>
      </trkpt>
      <trkpt lat="44.20554" lon="5.02289">
        <ele>245.31</ele>
        <time>2021-12-12T14:08:23Z</time>
      </trkpt>
      <trkpt lat="44.20565" lon="5.02291">
        <ele>246.29</ele>
        <time>2021-12-12T14:08:37Z</time>
      </trkpt>
      <trkpt lat="44.20577" lon="5.02286">
        <ele>246.25</ele>
        <time>2021-12-12T14:08:51Z</time>
      </trkpt>
      <trkpt lat="44.20588" lon="5.02282">
        <ele>245.51</ele>
        <time>2021-12-12T14:09:06Z</time>
      </trkpt>
      <trkpt lat="44.20592" lon="5.02287">
        <ele>245.36</ele>
        <time>2021-12-12T14:09:13Z</time>
      </trkpt>
      <trkpt lat="44.20605" lon="5.02276">
        <ele>244.78</ele>
        <time>2021-12-12T14:09:29Z</time>
      </trkpt>
      <trkpt lat="44.20617" lon="5.02272">
        <ele>243.73</ele>
        <time>2021-12-12T14:09:43Z</time>
      </trkpt>
      <trkpt lat="44.20635" lon="5.02273">
        <ele>241.84</ele>
        <time>2021-12-12T14:10:03Z</time>
      </trkpt>
      <trkpt lat="44.2065" lon="5.02274">
        <ele>241.45</ele>
        <time>2021-12-12T14:10:17Z</time>
      </trkpt>
      <trkpt lat="44.20668" lon="5.02288">
        <ele>241.28</ele>
        <time>2021-12-12T14:10:36Z</time>
      </trkpt>
      <trkpt lat="44.20679" lon="5.02298">
        <ele>240.68</ele>
        <time>2021-12-12T14:10:50Z</time>
      </trkpt>
      <trkpt lat="44.20688" lon="5.02307">
        <ele>238.89</ele>
        <time>2021-12-12T14:11:09Z</time>
      </trkpt>
      <trkpt lat="44.207" lon="5.02315">
        <ele>236.45</ele>
        <time>2021-12-12T14:11:27Z</time>
      </trkpt>
      <trkpt lat="44.20707" lon="5.02318">
        <ele>234.76</ele>
        <time>2021-12-12T14:11:41Z</time>
      </trkpt>
      <trkpt lat="44.20717" lon="5.02325">
        <ele>233.5</ele>
        <time>2021-12-12T14:11:57Z</time>
      </trkpt>
      <trkpt lat="44.20723" lon="5.02331">
        <ele>232.25</ele>
        <time>2021-12-12T14:12:12Z</time>
      </trkpt>
      <trkpt lat="44.20731" lon="5.02337">
        <ele>231.27</ele>
        <time>2021-12-12T14:12:28Z</time>
      </trkpt>
      <trkpt lat="44.20732" lon="5.02341">
        <ele>230.48</ele>
        <time>2021-12-12T14:12:41Z</time>
      </trkpt>
      <trkpt lat="44.20732" lon="5.02322">
        <ele>229.81</ele>
        <time>2021-12-12T14:12:57Z</time>
      </trkpt>
      <trkpt lat="44.20729" lon="5.02314">
        <ele>229.1</ele>
        <time>2021-12-12T14:13:02Z</time>
      </trkpt>
      <trkpt lat="44.20725" lon="5.02307">
        <ele>228.03</ele>
        <time>2021-12-12T14:13:07Z</time>
      </trkpt>
      <trkpt lat="44.20717" lon="5.02301">
        <ele>227.52</ele>
        <time>2021-12-12T14:13:21Z</time>
      </trkpt>
      <trkpt lat="44.20719" lon="5.02301">
        <ele>220.47</ele>
        <time>2021-12-12T14:13:44Z</time>
      </trkpt>
    </trkseg>
  </trk>
</gpx>